Portsmouth, Virginia - KPWR: 24-hour Summary Portsmouth Weather Records Service - Portsmouth, Virginia



LOCAL CLIMATOLOGICAL DATA: This Month's Data
[updated each morning between 7AM and 9AM]
Station: Portsmouth, Virginia - KPWR Latitude: 36° 48' 04" N Longitude: 76° 19' 37" W Elevation (ground): 13 ft. Time Zone: Eastern

BE SURE TO RELOAD/REFRESH THIS SCREEN FOR DAILY UPDATES BY RIGHT-CLICKING THE BACKGROUND The data in this frame and listed below are final adjusted site data for the time period.

-------------------------------------------------------------------------------------------------------------------------------------------
MONDAY			Temp	Hi	Low	Out	Dew	Wind	Wind	Wind	Hi	Hi	Wind	Heat	THW			Rain	Heat	Cool	In 	In	In 	In 	Wind	Wind	ISS 	Arc.
Date		Time	Out	Temp	Temp	Hum	Pt.	Speed	Dir	Run	Speed	Dir	Chill	Index	Index	Bar  	Rain	Rate	D-D 	D-D 	Temp	Hum	Dew	Heat	Samp	Tx 	Recept	Int.
01/01/18	1:00 a	20.4	21.8	20.4	59	8.3	0.0	NNW	0.00	20.0	NW	20.4	19.9	19.9	30.380	0.00	0.00	1.858	0.000	84.0	16	33.0	80.8	1403	1	100.0	60
01/01/18	2:00 a	19.6	20.4	19.6	60	8.0	0.0	NNW	0.00	24.0	WNW	19.6	19.2	19.2	30.393	0.00	0.00	1.892	0.000	83.4	16	32.5	80.1	1405	1	100.0	60
01/01/18	3:00 a	19.4	19.7	19.4	59	7.4	0.0	NW	0.00	22.0	NNW	19.4	19.0	19.0	30.401	0.00	0.00	1.900	0.000	82.9	16	32.1	79.6	1404	1	100.0	60
01/01/18	4:00 a	18.9	19.4	18.9	61	7.7	0.0	NW	0.00	19.0	NW	18.9	18.5	18.5	30.411	0.00	0.00	1.921	0.000	82.9	16	32.1	79.6	1405	1	100.0	60
01/01/18	5:00 a	18.6	18.9	18.6	61	7.4	0.0	NW	0.00	21.0	NW	18.6	18.2	18.2	30.416	0.00	0.00	1.933	0.000	82.7	16	31.9	79.3	1405	1	100.0	60
01/01/18	6:00 a	18.6	18.7	18.5	61	7.4	4.0	NW	4.00	22.0	NW	12.6	18.2	12.2	30.432	0.00	0.00	1.933	0.000	80.4	16	30.1	77.0	1405	1	100.0	60
01/01/18	7:00 a	18.6	18.7	18.6	62	7.7	6.0	NW	6.00	26.0	NNW	10.3	18.2	9.9	30.440	0.00	0.00	1.933	0.000	79.1	16	29.0	75.8	1405	1	100.0	60
01/01/18	8:00 a	18.6	18.6	18.6	62	7.7	0.0	NW	0.00	22.0	N	18.6	18.2	18.2	30.451	0.00	0.00	1.933	0.000	79.4	16	29.3	76.1	1405	1	100.0	60
01/01/18	9:00 a	20.0	20.0	18.6	59	8.0	1.0	NW	1.00	22.0	NW	20.0	19.6	19.6	30.481	0.00	0.00	1.875	0.000	80.2	16	29.9	76.8	1405	1	100.0	60
01/01/18	10:00 a	21.7	21.7	20.0	53	7.2	4.0	NW	4.00	27.0	NW	16.2	21.2	15.7	30.499	0.00	0.00	1.804	0.000	81.9	15	29.7	78.3	1405	1	100.0	60
01/01/18	11:00 a	22.7	22.7	21.7	51	7.3	4.0	NNW	4.00	29.0	WNW	17.3	22.1	16.7	30.494	0.00	0.00	1.762	0.000	84.3	15	31.6	81.1	1405	1	100.0	60
01/01/18	12:00 p	23.6	23.6	22.7	49	7.2	4.0	NW	4.00	26.0	NNW	18.4	22.9	17.7	30.467	0.00	0.00	1.725	0.000	87.1	15	33.8	83.5	1404	1	100.0	60
01/01/18	1:00 p	24.3	24.3	23.6	48	7.4	4.0	NW	4.00	21.0	WNW	19.2	23.6	18.5	30.441	0.00	0.00	1.696	0.000	87.9	15	34.5	84.0	1406	1	100.0	60
01/01/18	2:00 p	25.6	25.6	24.3	44	6.7	0.0	NW	0.00	21.0	NW	25.6	24.8	24.8	30.420	0.00	0.00	1.642	0.000	88.0	14	32.8	83.9	1404	1	100.0	60
01/01/18	3:00 p	25.8	25.9	25.5	42	5.8	0.0	NW	0.00	26.0	NW	25.8	25.0	25.0	30.414	0.00	0.00	1.633	0.000	84.5	15	31.8	81.3	1405	1	100.0	60
01/01/18	4:00 p	25.6	25.9	25.6	42	5.6	0.0	WNW	0.00	17.0	NNW	25.6	24.8	24.8	30.416	0.00	0.00	1.642	0.000	83.9	15	31.3	80.7	1405	1	100.0	60
01/01/18	5:00 p	24.8	25.6	24.8	42	4.9	0.0	NW	0.00	13.0	NW	24.8	24.0	24.0	30.433	0.00	0.00	1.675	0.000	82.4	15	30.1	78.9	1405	1	100.0	60
01/01/18	6:00 p	23.8	24.8	23.8	45	5.5	0.0	NNW	0.00	14.0	NNW	23.8	23.1	23.1	30.455	0.00	0.00	1.717	0.000	81.7	15	29.5	78.1	1405	1	100.0	60
01/01/18	7:00 p	23.3	23.8	23.3	46	5.5	0.0	NW	0.00	4.0	WNW	23.3	22.6	22.6	30.473	0.00	0.00	1.738	0.000	81.6	15	29.4	78.0	1405	1	100.0	60
01/01/18	8:00 p	21.6	23.3	21.5	52	6.7	0.0	NW	0.00	4.0	NW	21.6	21.0	21.0	30.474	0.00	0.00	1.808	0.000	82.7	15	30.3	79.2	1405	1	100.0	60
01/01/18	9:00 p	19.9	21.6	19.9	58	7.5	0.0	---	0.00	0.0	---	19.9	19.5	19.5	30.478	0.00	0.00	1.879	0.000	82.5	15	30.2	79.0	1404	1	100.0	60
01/01/18	10:00 p	18.0	19.9	18.0	65	8.2	0.0	---	0.00	0.0	---	18.0	17.6	17.6	30.480	0.00	0.00	1.958	0.000	82.8	15	30.4	79.4	1406	1	100.0	60
01/01/18	11:00 p	16.4	18.0	16.4	69	8.0	0.0	---	0.00	0.0	---	16.4	16.1	16.1	30.488	0.00	0.00	2.025	0.000	82.1	15	29.8	78.5	1404	1	100.0	60
01/02/18	12:00 a	15.3	16.4	15.3	75	8.8	0.0	---	0.00	0.0	---	15.3	15.1	15.1	30.488	0.00	0.00	2.071	0.000	79.8	15	28.0	76.3	1405	1	100.0	60

TUESDAY			Temp	Hi	Low	Out	Dew	Wind	Wind	Wind	Hi	Hi	Wind	Heat	THW			Rain	Heat	Cool	In 	In	In 	In 	Wind	Wind	ISS 	Arc.
Date		Time	Out	Temp	Temp	Hum	Pt.	Speed	Dir	Run	Speed	Dir	Chill	Index	Index	Bar  	Rain	Rate	D-D 	D-D 	Temp	Hum	Dew	Heat	Samp	Tx 	Recept	Int.
01/02/18	1:00 a	18.1	18.1	15.2	65	8.3	0.0	NW	0.00	17.0	NW	18.1	17.7	17.7	30.490	0.00	0.00	1.954	0.000	79.5	15	27.8	76.0	1404	1	100.0	60
01/02/18	2:00 a	19.7	20.4	18.1	59	7.7	0.0	NW	0.00	22.0	NNW	19.7	19.3	19.3	30.511	0.00	0.00	1.887	0.000	78.9	15	27.3	75.6	1405	1	100.0	60
01/02/18	3:00 a	18.4	19.7	18.4	60	6.8	0.0	NNW	0.00	22.0	NNW	18.4	18.0	18.0	30.533	0.00	0.00	1.942	0.000	79.2	15	27.5	75.8	1404	1	100.0	60
01/02/18	4:00 a	17.3	18.5	17.3	60	5.8	0.0	NNW	0.00	19.0	NNW	17.3	16.9	16.9	30.534	0.00	0.00	1.988	0.000	79.0	15	27.4	75.6	1405	1	100.0	60
01/02/18	5:00 a	16.4	17.3	16.4	60	4.9	0.0	NW	0.00	21.0	NNW	16.4	16.0	16.0	30.543	0.00	0.00	2.025	0.000	78.7	15	27.1	75.5	1404	1	100.0	60
01/02/18	6:00 a	16.1	16.5	16.0	61	5.0	0.0	NNW	0.00	14.0	NW	16.1	15.7	15.7	30.560	0.00	0.00	2.037	0.000	79.2	15	27.5	75.8	1405	1	100.0	60
01/02/18	7:00 a	16.0	16.1	16.0	63	5.6	0.0	WNW	0.00	15.0	NW	16.0	15.7	15.7	30.571	0.00	0.00	2.042	0.000	79.4	14	26.0	75.9	1405	1	100.0	60
01/02/18	8:00 a	16.3	16.3	16.0	64	6.2	0.0	WNW	0.00	12.0	W	16.3	16.0	16.0	30.579	0.00	0.00	2.029	0.000	81.2	15	29.1	77.7	1405	1	100.0	60
01/02/18	9:00 a	18.2	18.2	16.3	63	7.7	0.0	WNW	0.00	25.0	WNW	18.2	17.8	17.8	30.588	0.00	0.00	1.950	0.000	82.3	14	28.3	78.7	1405	1	100.0	60
01/02/18	10:00 a	20.4	20.4	18.2	58	8.0	0.0	NW	0.00	18.0	WNW	20.4	19.9	19.9	30.600	0.00	0.00	1.858	0.000	82.4	15	30.1	78.9	1405	1	100.0	60
01/02/18	11:00 a	22.3	22.3	20.4	53	7.7	0.0	NNW	0.00	17.0	NNW	22.3	21.7	21.7	30.584	0.00	0.00	1.779	0.000	84.3	14	29.9	81.0	1404	1	100.0	60
01/02/18	12:00 p	23.8	23.8	22.4	50	7.8	0.0	WNW	0.00	19.0	WNW	23.8	23.1	23.1	30.546	0.00	0.00	1.717	0.000	85.0	14	30.4	81.7	1406	1	100.0	60
01/02/18	1:00 p	25.2	25.2	23.8	45	6.8	0.0	WNW	0.00	15.0	NW	25.2	24.5	24.5	30.511	0.00	0.00	1.658	0.000	81.4	16	30.9	77.9	1404	1	100.0	60
01/02/18	2:00 p	26.6	26.6	25.2	44	7.6	0.0	WNW	0.00	15.0	WNW	26.6	25.8	25.8	30.482	0.00	0.00	1.600	0.000	80.7	16	30.3	77.3	1405	1	100.0	60
01/02/18	3:00 p	27.2	27.2	26.6	42	7.1	0.0	ENE	0.00	7.0	NE	27.2	26.3	26.3	30.465	0.00	0.00	1.575	0.000	81.5	16	31.0	78.0	1405	1	100.0	60
01/02/18	4:00 p	27.4	27.5	27.2	42	7.3	0.0	---	0.00	0.0	---	27.4	26.5	26.5	30.466	0.00	0.00	1.567	0.000	80.8	16	30.4	77.4	1405	1	100.0	60
01/02/18	5:00 p	26.7	27.4	26.7	44	7.7	0.0	---	0.00	0.0	---	26.7	25.9	25.9	30.458	0.00	0.00	1.596	0.000	80.3	16	30.0	76.9	1405	1	100.0	60
01/02/18	6:00 p	24.8	26.8	24.8	51	9.2	0.0	---	0.00	0.0	---	24.8	24.1	24.1	30.467	0.00	0.00	1.675	0.000	78.6	16	28.6	75.6	1405	1	100.0	60
01/02/18	7:00 p	22.4	24.8	22.4	58	9.8	0.0	---	0.00	0.0	---	22.4	21.9	21.9	30.473	0.00	0.00	1.775	0.000	77.7	16	27.9	75.4	1405	1	100.0	60
01/02/18	8:00 p	20.3	22.4	20.3	63	9.7	0.0	---	0.00	0.0	---	20.3	19.9	19.9	30.463	0.00	0.00	1.863	0.000	83.5	15	31.0	80.2	1404	1	100.0	60
01/02/18	9:00 p	18.7	20.3	18.7	68	9.9	0.0	---	0.00	0.0	---	18.7	18.4	18.4	30.445	0.00	0.00	1.929	0.000	84.1	14	29.7	80.9	1405	1	100.0	60
01/02/18	10:00 p	17.5	18.7	17.5	71	9.7	0.0	---	0.00	0.0	---	17.5	17.2	17.2	30.435	0.00	0.00	1.979	0.000	83.0	14	28.9	79.5	1405	1	100.0	60
01/02/18	11:00 p	16.2	17.5	16.1	74	9.4	0.0	---	0.00	0.0	---	16.2	16.0	16.0	30.423	0.00	0.00	2.033	0.000	81.9	15	29.7	78.3	1405	1	100.0	60
01/03/18	12:00 a	15.4	16.1	15.4	76	9.2	0.0	---	0.00	0.0	---	15.4	15.2	15.2	30.413	0.00	0.00	2.067	0.000	80.3	15	28.4	76.8	1405	1	100.0	60

WEDNESDAY		Temp	Hi	Low	Out	Dew	Wind	Wind	Wind	Hi	Hi	Wind	Heat	THW			Rain	Heat	Cool	In 	In	In 	In 	Wind	Wind	ISS 	Arc.
Date		Time	Out	Temp	Temp	Hum	Pt.	Speed	Dir	Run	Speed	Dir	Chill	Index	Index	Bar  	Rain	Rate	D-D 	D-D 	Temp	Hum	Dew	Heat	Samp	Tx 	Recept	Int.
01/03/18	1:00 a	14.5	15.4	14.5	78	8.9	0.0	---	0.00	0.0	---	14.5	14.3	14.3	30.405	0.00	0.00	2.104	0.000	79.8	15	28.0	76.3	1404	1	100.0	60
01/03/18	2:00 a	14.1	14.5	14.1	79	8.8	0.0	---	0.00	0.0	---	14.1	13.9	13.9	30.403	0.00	0.00	2.121	0.000	79.1	15	27.5	75.7	1405	1	100.0	60
01/03/18	3:00 a	13.6	14.1	13.6	80	8.6	0.0	---	0.00	0.0	---	13.6	13.4	13.4	30.396	0.00	0.00	2.142	0.000	79.2	15	27.5	75.8	1404	1	100.0	60
01/03/18	4:00 a	13.0	13.5	13.0	80	8.0	0.0	---	0.00	0.0	---	13.0	12.8	12.8	30.374	0.00	0.00	2.167	0.000	79.0	14	25.7	75.5	1405	1	100.0	60
01/03/18	5:00 a	12.5	13.0	12.5	81	7.8	0.0	---	0.00	0.0	---	12.5	12.3	12.3	30.358	0.00	0.00	2.188	0.000	78.7	14	25.5	75.4	1405	1	100.0	60
01/03/18	6:00 a	12.5	12.5	12.3	83	8.3	0.0	---	0.00	0.0	---	12.5	12.4	12.4	30.345	0.00	0.00	2.188	0.000	78.9	14	25.6	75.5	1405	1	100.0	60
01/03/18	7:00 a	13.1	13.2	12.5	84	9.2	0.0	---	0.00	0.0	---	13.1	13.0	13.0	30.330	0.00	0.00	2.162	0.000	79.2	14	25.9	75.7	1405	1	100.0	60
01/03/18	8:00 a	14.3	14.3	13.1	85	10.6	0.0	---	0.00	0.0	---	14.3	14.2	14.2	30.320	0.00	0.00	2.112	0.000	79.3	15	27.6	75.9	1405	1	100.0	60
01/03/18	9:00 a	18.1	18.1	14.3	87	14.9	0.0	---	0.00	0.0	---	18.1	17.9	17.9	30.307	0.00	0.00	1.954	0.000	80.5	14	26.9	76.9	1405	1	100.0	60
01/03/18	10:00 a	28.7	28.7	18.1	66	18.8	0.0	---	0.00	0.0	---	28.7	28.1	28.1	30.283	0.00	0.00	1.512	0.000	81.9	14	28.0	78.2	1405	1	100.0	60
01/03/18	11:00 a	33.7	33.7	28.8	61	21.7	0.0	ENE	0.00	11.0	NE	33.7	33.0	33.0	30.245	0.00	0.00	1.304	0.000	83.3	14	29.1	79.9	1404	1	100.0	60
01/03/18	12:00 p	35.0	35.0	33.7	61	22.9	0.0	ENE	0.00	12.0	NE	35.0	34.3	34.3	30.193	0.00	0.00	1.250	0.000	83.5	15	31.0	80.2	1406	1	100.0	60
01/03/18	1:00 p	35.4	35.8	35.0	61	23.3	0.0	ENE	0.00	18.0	ENE	35.4	34.7	34.7	30.149	0.00	0.00	1.233	0.000	83.4	15	30.9	80.1	1404	1	100.0	60
01/03/18	2:00 p	35.7	35.9	35.4	63	24.3	0.0	ENE	0.00	17.0	E	35.7	35.0	35.0	30.095	0.00	0.00	1.221	0.000	83.0	15	30.6	79.6	1405	1	100.0	60
01/03/18	3:00 p	35.4	36.0	35.4	67	25.5	0.0	NE	0.00	11.0	NE	35.4	34.8	34.8	30.084	0.00	0.00	1.233	0.000	82.8	15	30.4	79.4	1405	1	100.0	60
01/03/18	4:00 p	34.4	35.4	34.4	69	25.3	0.0	NE	0.00	16.0	ENE	34.4	33.9	33.9	30.072	0.00	0.00	1.275	0.000	82.0	16	31.4	78.5	1405	1	100.0	60
01/03/18	5:00 p	33.6	34.4	33.6	71	25.2	0.0	N	0.00	19.0	NW	33.6	33.1	33.1	30.027	0.00	0.00	1.308	0.000	81.9	16	31.3	78.4	1405	1	100.0	60
01/03/18	6:00 p	33.5	33.6	33.4	71	25.1	0.0	NW	0.00	19.0	NNW	33.5	33.0	33.0	30.008	0.00	0.00	1.313	0.000	82.1	16	31.4	78.6	1405	1	100.0	60
01/03/18	7:00 p	34.3	34.3	33.5	76	27.5	0.0	NW	0.00	21.0	NW	34.3	33.8	33.8	29.972	0.00	0.00	1.279	0.000	81.9	16	31.3	78.4	1405	1	100.0	60
01/03/18	8:00 p	34.8	34.8	34.3	79	29.0	4.0	NE	4.00	25.0	NE	31.3	34.5	31.0	29.920	0.04	0.04	1.258	0.000	83.5	16	32.6	80.3	1405	1	100.0	60
01/03/18	9:00 p	34.0	34.8	34.0	87	30.5	5.0	NE	5.00	21.0	NE	29.4	33.7	29.1	29.886	0.08	0.08	1.292	0.000	83.3	16	32.4	80.0	1404	1	100.0	60
01/03/18	10:00 p	32.7	34.0	32.7	94	31.2	9.0	N	9.00	20.0	E	25.1	32.6	25.0	29.833	0.08	0.08	1.346	0.000	83.5	17	34.1	80.3	1405	1	100.0	60
01/03/18	11:00 p	32.3	32.7	32.3	95	31.0	7.0	N	7.00	23.0	NNE	25.9	32.2	25.8	29.771	0.08	0.08	1.363	0.000	82.3	17	33.1	78.9	1405	1	100.0	60
01/04/18	12:00 a	31.6	32.3	31.5	96	30.6	10.0	N	10.00	25.0	NW	23.2	31.5	23.1	29.695	0.12	0.12	1.392	0.000	81.9	17	32.8	78.5	1405	1	100.0	60

THURSDAY		Temp	Hi	Low	Out	Dew	Wind	Wind	Wind	Hi	Hi	Wind	Heat	THW			Rain	Heat	Cool	In 	In	In 	In 	Wind	Wind	ISS 	Arc.
Date		Time	Out	Temp	Temp	Hum	Pt.	Speed	Dir	Run	Speed	Dir	Chill	Index	Index	Bar  	Rain	Rate	D-D 	D-D 	Temp	Hum	Dew	Heat	Samp	Tx 	Recept	Int.
01/04/18	1:00 a	31.4	31.7	31.4	97	30.6	11.0	N	11.00	27.0	N	22.5	31.4	22.5	29.618	0.08	0.08	1.400	0.000	83.0	17	33.7	79.8	1404	1	100.0	60
01/04/18	2:00 a	31.1	31.4	31.1	97	30.3	13.0	N	13.00	28.0	N	21.2	31.0	21.1	29.565	0.08	0.08	1.412	0.000	82.7	17	33.4	79.4	1405	1	100.0	60
01/04/18	3:00 a	30.0	31.1	30.0	97	29.3	14.0	N	14.00	32.0	WNW	19.4	29.9	19.3	29.525	0.08	0.08	1.458	0.000	82.6	17	33.4	79.3	1405	1	100.0	60
01/04/18	4:00 a	28.9	30.0	28.9	97	28.2	14.0	N	14.00	37.0	NW	18.0	28.8	17.9	29.519	0.08	0.08	1.504	0.000	82.6	17	33.4	79.3	1405	1	100.0	60
01/04/18	5:00 a	28.3	28.9	28.3	97	27.6	16.0	N	16.00	33.0	WNW	16.5	28.2	16.4	29.504	0.08	0.08	1.529	0.000	83.5	17	34.1	80.3	1404	1	100.0	60
01/04/18	6:00 a	26.4	28.3	26.4	96	25.4	19.0	NW	19.00	44.0	NNW	13.0	26.3	12.9	29.515	0.05	0.05	1.608	0.000	81.4	17	32.4	78.0	1405	1	100.0	60
01/04/18	7:00 a	25.5	26.4	25.5	95	24.3	18.0	NW	18.00	49.0	WNW	12.1	25.4	12.0	29.537	0.05	0.05	1.646	0.000	82.1	17	32.9	78.7	1405	1	100.0	60
01/04/18	8:00 a	25.4	25.5	25.4	93	23.7	19.0	NW	19.00	44.0	NW	11.7	25.3	11.6	29.572	0.03	0.03	1.650	0.000	83.4	17	34.0	80.2	1405	1	100.0	60
01/04/18	9:00 a	25.1	25.6	25.1	93	23.4	11.0	WNW	11.00	36.0	WNW	14.6	25.0	14.5	29.606	0.04	0.04	1.662	0.000	82.7	17	33.4	79.4	1405	1	100.0	60
01/04/18	10:00 a	24.5	25.1	24.4	93	22.8	8.0	WNW	8.00	28.0	WNW	15.7	24.4	15.6	29.639	0.04	0.04	1.688	0.000	82.8	17	33.5	79.5	1405	1	100.0	60
01/04/18	11:00 a	24.7	24.7	24.4	93	23.0	7.0	WNW	7.00	24.0	W	16.7	24.6	16.6	29.648	0.03	0.03	1.679	0.000	83.0	17	33.7	79.8	1405	1	100.0	60
01/04/18	12:00 p	25.5	25.5	24.6	93	23.8	7.0	WNW	7.00	28.0	NW	17.7	25.4	17.6	29.650	0.03	0.03	1.646	0.000	83.4	16	32.5	80.1	1405	1	100.0	60
01/04/18	1:00 p	25.4	26.0	25.4	90	22.9	7.0	WNW	7.00	26.0	WNW	17.5	25.3	17.4	29.672	0.03	0.03	1.650	0.000	82.3	17	33.1	78.9	1405	1	100.0	60
01/04/18	2:00 p	27.2	27.3	25.4	84	23.0	5.0	WNW	5.00	28.0	W	21.4	27.0	21.2	29.680	0.00	0.00	1.575	0.000	83.0	17	33.7	79.8	1404	1	100.0	60
01/04/18	3:00 p	27.6	27.6	27.1	83	23.1	6.0	WNW	6.00	32.0	NW	21.0	27.4	20.8	29.697	0.00	0.00	1.558	0.000	84.7	16	33.5	81.5	1396	1	100.0	60
01/04/18	4:00 p	27.3	27.8	27.3	77	21.0	5.0	W	5.00	23.0	WNW	21.6	26.9	21.2	29.721	0.00	0.00	1.571	0.000	84.3	16	33.2	81.1	1405	1	100.0	60
01/04/18	5:00 p	26.5	27.4	26.5	71	18.4	4.0	WNW	4.00	23.0	WSW	21.7	26.1	21.3	29.739	0.00	0.00	1.604	0.000	83.7	16	32.7	80.5	1405	1	100.0	60
01/04/18	6:00 p	25.8	26.5	25.6	73	18.3	0.0	WSW	0.00	14.0	W	25.8	25.4	25.4	29.757	0.00	0.00	1.633	0.000	82.4	17	33.2	79.1	1405	1	100.0	60
01/04/18	7:00 p	24.1	25.8	24.1	74	17.0	0.0	SW	0.00	13.0	WSW	24.1	23.8	23.8	29.787	0.00	0.00	1.704	0.000	82.3	17	33.1	78.9	1405	1	100.0	60
01/04/18	8:00 p	23.8	24.1	23.3	65	13.7	0.0	W	0.00	15.0	W	23.8	23.3	23.3	29.824	0.00	0.00	1.717	0.000	82.2	17	33.0	78.8	1405	1	100.0	60
01/04/18	9:00 p	23.3	23.9	23.3	63	12.6	0.0	W	0.00	22.0	NW	23.3	22.8	22.8	29.856	0.00	0.00	1.738	0.000	82.3	17	33.1	78.9	1405	1	100.0	60
01/04/18	10:00 p	22.2	23.3	22.2	57	9.3	4.0	W	4.00	23.0	W	16.8	21.7	16.3	29.893	0.00	0.00	1.783	0.000	81.8	17	32.7	78.4	1405	1	100.0	60
01/04/18	11:00 p	21.0	22.2	20.9	59	8.9	4.0	WNW	4.00	18.0	WSW	15.4	20.5	14.9	29.926	0.00	0.00	1.833	0.000	81.0	17	32.1	77.7	1404	1	100.0	60
01/05/18	12:00 a	19.9	20.9	19.9	58	7.5	5.0	WNW	5.00	23.0	NW	12.9	19.5	12.5	29.943	0.00	0.00	1.879	0.000	79.2	17	30.6	76.0	1405	1	100.0	60

FRIDAY			Temp	Hi	Low	Out	Dew	Wind	Wind	Wind	Hi	Hi	Wind	Heat	THW			Rain	Heat	Cool	In 	In	In 	In 	Wind	Wind	ISS 	Arc.
Date		Time	Out	Temp	Temp	Hum	Pt.	Speed	Dir	Run	Speed	Dir	Chill	Index	Index	Bar  	Rain	Rate	D-D 	D-D 	Temp	Hum	Dew	Heat	Samp	Tx 	Recept	Int.
01/05/18	1:00 a	18.6	19.9	18.6	60	7.0	4.0	W	4.00	22.0	WSW	12.6	18.2	12.2	29.955	0.00	0.00	1.933	0.000	79.2	17	30.6	76.0	1403	1	100.0	60
01/05/18	2:00 a	17.0	18.6	17.0	64	6.9	0.0	WSW	0.00	18.0	WNW	17.0	16.7	16.7	29.988	0.00	0.00	2.000	0.000	78.5	17	30.0	75.7	1405	1	100.0	60
01/05/18	3:00 a	16.2	17.0	16.2	64	6.1	0.0	WSW	0.00	19.0	WNW	16.2	15.9	15.9	30.012	0.00	0.00	2.033	0.000	78.8	17	30.3	75.8	1405	1	100.0	60
01/05/18	4:00 a	15.2	16.2	15.2	64	5.2	4.0	WSW	4.00	19.0	WNW	8.7	14.9	8.4	30.033	0.00	0.00	2.075	0.000	78.5	16	28.5	75.6	1405	1	100.0	60
01/05/18	5:00 a	14.5	15.3	14.5	64	4.5	4.0	W	4.00	21.0	W	7.9	14.2	7.6	30.049	0.00	0.00	2.104	0.000	78.2	16	28.3	75.5	1405	1	100.0	60
01/05/18	6:00 a	13.1	14.5	13.1	65	3.5	0.0	SW	0.00	7.0	W	13.1	12.8	12.8	30.067	0.00	0.00	2.162	0.000	78.5	16	28.5	75.6	1404	1	100.0	60
01/05/18	7:00 a	12.1	13.2	12.0	67	3.2	0.0	W	0.00	4.0	W	12.1	11.8	11.8	30.091	0.00	0.00	2.204	0.000	78.7	16	28.7	75.6	1405	1	100.0	60
01/05/18	8:00 a	12.7	12.7	12.0	67	3.8	0.0	W	0.00	18.0	W	12.7	12.4	12.4	30.117	0.00	0.00	2.179	0.000	79.3	16	29.2	76.0	1405	1	100.0	60
01/05/18	9:00 a	15.8	15.8	12.7	62	5.1	0.0	W	0.00	13.0	W	15.8	15.4	15.4	30.143	0.00	0.00	2.050	0.000	80.2	16	29.9	76.8	1405	1	100.0	60
01/05/18	10:00 a	18.8	18.8	15.8	57	6.1	4.0	WNW	4.00	26.0	SW	12.8	18.3	12.3	30.142	0.00	0.00	1.925	0.000	82.0	15	29.8	78.4	1404	1	100.0	60
01/05/18	11:00 a	21.7	21.7	18.8	54	7.6	0.0	W	0.00	20.0	WSW	21.7	21.2	21.2	30.127	0.00	0.00	1.804	0.000	83.5	15	31.0	80.2	1405	1	100.0	60
01/05/18	12:00 p	23.9	23.9	21.7	48	7.0	4.0	WNW	4.00	27.0	WNW	18.7	23.2	18.0	30.104	0.00	0.00	1.713	0.000	83.7	15	31.1	80.4	1405	1	100.0	60
01/05/18	1:00 p	25.7	25.7	23.9	48	8.7	0.0	W	0.00	22.0	W	25.7	25.0	25.0	30.103	0.00	0.00	1.637	0.000	84.3	14	29.9	81.0	1402	1	100.0	60
01/05/18	2:00 p	26.2	26.2	25.6	46	8.2	4.0	WSW	4.00	25.0	WSW	21.4	25.4	20.6	30.106	0.00	0.00	1.617	0.000	83.5	14	29.3	80.1	1404	1	100.0	60
01/05/18	3:00 p	26.7	26.8	26.1	44	7.7	4.0	WNW	4.00	22.0	WNW	22.0	25.9	21.2	30.120	0.00	0.00	1.596	0.000	83.6	14	29.3	80.3	1405	1	100.0	60
01/05/18	4:00 p	26.1	26.7	26.1	45	7.6	0.0	WSW	0.00	22.0	WSW	26.1	25.3	25.3	30.148	0.00	0.00	1.621	0.000	82.7	15	30.3	79.2	1405	1	100.0	60
01/05/18	5:00 p	24.9	26.1	24.9	46	7.0	0.0	WSW	0.00	20.0	W	24.9	24.2	24.2	30.172	0.00	0.00	1.671	0.000	81.7	15	29.5	78.1	1404	1	100.0	60
01/05/18	6:00 p	23.1	24.9	23.1	48	6.3	0.0	WNW	0.00	15.0	WSW	23.1	22.5	22.5	30.200	0.00	0.00	1.746	0.000	81.4	15	29.3	77.9	1405	1	100.0	60
01/05/18	7:00 p	21.8	23.1	21.8	51	6.4	0.0	W	0.00	13.0	WNW	21.8	21.2	21.2	30.225	0.00	0.00	1.800	0.000	83.9	15	31.3	80.7	1405	1	100.0	60
01/05/18	8:00 p	19.9	21.8	19.9	54	5.9	0.0	W	0.00	13.0	W	19.9	19.4	19.4	30.255	0.00	0.00	1.879	0.000	84.6	15	31.8	81.3	1405	1	100.0	60
01/05/18	9:00 p	17.1	19.9	17.1	59	5.2	0.0	W	0.00	4.0	W	17.1	16.7	16.7	30.281	0.00	0.00	1.996	0.000	84.6	15	31.8	81.3	1405	1	100.0	60
01/05/18	10:00 p	15.7	17.2	15.7	62	5.0	0.0	---	0.00	0.0	---	15.7	15.3	15.3	30.301	0.00	0.00	2.054	0.000	84.7	15	31.9	81.4	1405	1	100.0	60
01/05/18	11:00 p	15.0	15.7	14.7	61	4.0	0.0	WNW	0.00	7.0	WNW	15.0	14.6	14.6	30.323	0.00	0.00	2.083	0.000	83.3	15	30.8	80.0	1404	1	100.0	60
01/06/18	12:00 a	13.7	15.0	13.7	63	3.4	0.0	W	0.00	5.0	W	13.7	13.4	13.4	30.322	0.00	0.00	2.138	0.000	83.1	15	30.6	79.7	1405	1	100.0	60

SATURDAY		Temp	Hi	Low	Out	Dew	Wind	Wind	Wind	Hi	Hi	Wind	Heat	THW			Rain	Heat	Cool	In 	In	In 	In 	Wind	Wind	ISS 	Arc.
Date		Time	Out	Temp	Temp	Hum	Pt.	Speed	Dir	Run	Speed	Dir	Chill	Index	Index	Bar  	Rain	Rate	D-D 	D-D 	Temp	Hum	Dew	Heat	Samp	Tx 	Recept	Int.
01/06/18	1:00 a	12.8	13.7	12.8	63	2.6	0.0	WNW	0.00	4.0	WNW	12.8	12.5	12.5	30.323	0.00	0.00	2.175	0.000	83.0	15	30.6	79.6	1404	1	100.0	60
01/06/18	2:00 a	13.3	13.3	12.3	60	2.0	0.0	WNW	0.00	5.0	WNW	13.3	13.0	13.0	30.324	0.00	0.00	2.154	0.000	82.9	15	30.5	79.5	1405	1	100.0	60
01/06/18	3:00 a	12.6	13.4	12.6	62	2.0	0.0	WNW	0.00	4.0	WNW	12.6	12.3	12.3	30.339	0.00	0.00	2.183	0.000	82.9	14	28.8	79.4	1405	1	100.0	60
01/06/18	4:00 a	11.2	12.6	11.2	65	1.7	0.0	---	0.00	0.0	---	11.2	10.9	10.9	30.352	0.00	0.00	2.242	0.000	83.0	14	28.9	79.5	1405	1	100.0	60
01/06/18	5:00 a	9.3	11.2	9.3	69	1.2	0.0	---	0.00	0.0	---	9.3	9.1	9.1	30.369	0.00	0.00	2.321	0.000	83.0	14	28.9	79.5	1404	1	100.0	60
01/06/18	6:00 a	7.9	9.3	7.9	71	0.4	0.0	---	0.00	0.0	---	7.9	7.7	7.7	30.378	0.00	0.00	2.379	0.000	83.6	14	29.3	80.3	1405	1	100.0	60
01/06/18	7:00 a	8.0	8.0	7.1	73	1.1	0.0	---	0.00	0.0	---	8.0	7.8	7.8	30.384	0.00	0.00	2.375	0.000	83.3	14	29.1	79.9	1405	1	100.0	60
01/06/18	8:00 a	10.8	10.8	8.0	67	2.0	0.0	NW	0.00	5.0	NW	10.8	10.5	10.5	30.411	0.00	0.00	2.258	0.000	83.6	15	31.0	80.3	1405	1	100.0	60
01/06/18	9:00 a	14.8	14.8	10.8	62	4.1	0.0	NW	0.00	10.0	NNW	14.8	14.5	14.5	30.428	0.00	0.00	2.092	0.000	84.0	15	31.4	80.8	1405	1	100.0	60
01/06/18	10:00 a	17.9	17.9	14.8	56	4.8	0.0	WNW	0.00	7.0	WNW	17.9	17.4	17.4	30.438	0.00	0.00	1.963	0.000	85.1	14	30.5	81.8	1405	1	100.0	60
01/06/18	11:00 a	19.8	19.8	17.9	53	5.4	0.0	NW	0.00	21.0	NW	19.8	19.3	19.3	30.438	0.00	0.00	1.883	0.000	86.5	14	31.6	83.0	1405	1	100.0	60
01/06/18	12:00 p	20.7	20.8	19.8	50	5.0	0.0	WNW	0.00	25.0	NW	20.7	20.1	20.1	30.412	0.00	0.00	1.846	0.000	86.8	13	30.0	83.2	1403	1	100.0	60
01/06/18	1:00 p	21.8	21.8	20.7	49	5.5	0.0	NW	0.00	16.0	NW	21.8	21.2	21.2	30.407	0.00	0.00	1.800	0.000	86.2	13	29.6	82.7	1406	1	100.0	60
01/06/18	2:00 p	23.0	23.0	21.8	48	6.2	0.0	WNW	0.00	11.0	NW	23.0	22.4	22.4	30.397	0.00	0.00	1.750	0.000	85.0	14	30.4	81.7	1404	1	100.0	60
01/06/18	3:00 p	23.5	23.5	23.0	43	4.2	0.0	WNW	0.00	19.0	NW	23.5	22.8	22.8	30.406	0.00	0.00	1.729	0.000	86.2	13	29.6	82.7	1405	1	100.0	60
01/06/18	4:00 p	23.1	23.5	23.1	43	3.9	0.0	WNW	0.00	16.0	WNW	23.1	22.4	22.4	30.415	0.00	0.00	1.746	0.000	86.3	13	29.6	82.8	1405	1	100.0	60
01/06/18	5:00 p	22.0	23.1	22.0	44	3.4	0.0	W	0.00	19.0	WNW	22.0	21.3	21.3	30.437	0.00	0.00	1.792	0.000	85.5	14	30.8	82.1	1405	1	100.0	60
01/06/18	6:00 p	20.3	22.0	20.3	46	2.8	0.0	WNW	0.00	4.0	NW	20.3	19.7	19.7	30.460	0.00	0.00	1.863	0.000	84.7	14	30.2	81.4	1405	1	100.0	60
01/06/18	7:00 p	18.8	20.3	18.8	50	3.2	0.0	NW	0.00	4.0	NW	18.8	18.3	18.3	30.492	0.00	0.00	1.925	0.000	85.1	14	30.5	81.8	1405	1	100.0	60
01/06/18	8:00 p	17.3	18.8	17.3	55	3.9	0.0	---	0.00	0.0	---	17.3	16.9	16.9	30.510	0.00	0.00	1.988	0.000	84.3	14	29.9	81.0	1405	1	100.0	60
01/06/18	9:00 p	18.3	18.3	17.2	48	1.9	0.0	NNW	0.00	10.0	NNW	18.3	17.8	17.8	30.525	0.00	0.00	1.946	0.000	83.9	14	29.6	80.6	1404	1	100.0	60
01/06/18	10:00 p	17.3	18.3	17.3	52	2.7	0.0	---	0.00	0.0	---	17.3	16.8	16.8	30.542	0.00	0.00	1.988	0.000	83.6	14	29.3	80.3	1405	1	100.0	60
01/06/18	11:00 p	16.9	17.4	16.8	52	2.3	0.0	NW	0.00	13.0	N	16.9	16.4	16.4	30.560	0.00	0.00	2.004	0.000	84.4	14	30.0	81.1	1405	1	100.0	60
01/07/18	12:00 a	15.8	16.9	15.8	52	1.3	0.0	N	0.00	18.0	N	15.8	15.3	15.3	30.570	0.00	0.00	2.050	0.000	82.9	14	28.8	79.4	1405	1	100.0	60

SUNDAY			Temp	Hi	Low	Out	Dew	Wind	Wind	Wind	Hi	Hi	Wind	Heat	THW			Rain	Heat	Cool	In 	In	In 	In 	Wind	Wind	ISS 	Arc.
Date		Time	Out	Temp	Temp	Hum	Pt.	Speed	Dir	Run	Speed	Dir	Chill	Index	Index	Bar  	Rain	Rate	D-D 	D-D 	Temp	Hum	Dew	Heat	Samp	Tx 	Recept	Int.
01/07/18	1:00 a	15.3	15.8	15.3	54	1.6	0.0	NW	0.00	21.0	WNW	15.3	14.9	14.9	30.572	0.00	0.00	2.071	0.000	82.4	14	28.4	78.8	1404	1	100.0	60
01/07/18	2:00 a	14.8	15.4	14.8	54	1.1	0.0	NNW	0.00	17.0	NNW	14.8	14.4	14.4	30.584	0.00	0.00	2.092	0.000	82.3	14	28.3	78.7	1405	1	100.0	60
01/07/18	3:00 a	14.2	14.8	14.2	57	1.7	0.0	NNW	0.00	15.0	NNW	14.2	13.8	13.8	30.601	0.00	0.00	2.117	0.000	82.2	14	28.2	78.5	1404	1	100.0	60
01/07/18	4:00 a	13.6	14.3	13.6	59	1.9	0.0	NW	0.00	14.0	NNW	13.6	13.3	13.3	30.610	0.00	0.00	2.142	0.000	82.0	14	28.1	78.3	1405	1	100.0	60
01/07/18	5:00 a	13.1	13.6	13.1	61	2.2	0.0	WNW	0.00	4.0	WNW	13.1	12.8	12.8	30.622	0.00	0.00	2.162	0.000	81.4	14	27.6	77.8	1405	1	100.0	60
01/07/18	6:00 a	12.9	13.1	12.8	64	3.0	0.0	NNW	0.00	5.0	NNW	12.9	12.6	12.6	30.633	0.00	0.00	2.171	0.000	81.6	14	27.8	77.9	1405	1	100.0	60
01/07/18	7:00 a	12.3	12.9	12.3	64	2.4	0.0	NNW	0.00	6.0	WNW	12.3	12.0	12.0	30.639	0.00	0.00	2.196	0.000	82.6	13	26.7	78.9	1405	1	100.0	60
01/07/18	8:00 a	12.2	12.3	12.0	66	3.0	0.0	WNW	0.00	6.0	WNW	12.2	11.9	11.9	30.667	0.00	0.00	2.200	0.000	84.3	13	28.1	81.0	1405	1	100.0	60
01/07/18	9:00 a	14.0	14.0	12.2	63	3.7	0.0	NW	0.00	13.0	WNW	14.0	13.7	13.7	30.679	0.00	0.00	2.125	0.000	83.1	13	27.1	79.5	1405	1	100.0	60
01/07/18	10:00 a	16.1	16.1	14.0	64	6.1	0.0	N	0.00	7.0	N	16.1	15.8	15.8	30.693	0.00	0.00	2.037	0.000	83.4	13	27.4	79.9	1405	1	100.0	60
01/07/18	11:00 a	17.9	17.9	16.1	65	8.1	0.0	WNW	0.00	10.0	NW	17.9	17.5	17.5	30.686	0.00	0.00	1.963	0.000	84.8	13	28.5	81.5	1404	1	100.0	60
01/07/18	12:00 p	18.9	18.9	17.9	63	8.4	0.0	ENE	0.00	4.0	ENE	18.9	18.5	18.5	30.649	0.00	0.00	1.921	0.000	85.1	13	28.7	81.7	1405	1	100.0	60
01/07/18	1:00 p	20.3	20.3	18.9	60	8.6	0.0	---	0.00	0.0	---	20.3	19.9	19.9	30.620	0.00	0.00	1.863	0.000	84.7	14	30.2	81.4	1405	1	100.0	60
01/07/18	2:00 p	21.6	21.6	20.3	58	9.1	0.0	WNW	0.00	4.0	WNW	21.6	21.1	21.1	30.602	0.00	0.00	1.808	0.000	83.9	15	31.3	80.7	1405	1	100.0	60
01/07/18	3:00 p	22.8	22.8	21.6	57	9.8	0.0	---	0.00	0.0	---	22.8	22.3	22.3	30.577	0.00	0.00	1.758	0.000	84.1	16	33.0	80.9	1405	1	100.0	60
01/07/18	4:00 p	23.5	23.6	22.8	52	8.4	0.0	ENE	0.00	6.0	ENE	23.5	22.9	22.9	30.569	0.00	0.00	1.729	0.000	83.6	15	31.0	80.3	1405	1	100.0	60
01/07/18	5:00 p	22.2	23.5	22.2	59	10.0	0.0	---	0.00	0.0	---	22.2	21.7	21.7	30.557	0.00	0.00	1.783	0.000	84.4	14	30.0	81.1	1405	1	100.0	60
01/07/18	6:00 p	20.8	22.2	20.8	66	11.2	0.0	---	0.00	0.0	---	20.8	20.4	20.4	30.565	0.00	0.00	1.842	0.000	84.0	14	29.7	80.8	1405	1	100.0	60
01/07/18	7:00 p	18.2	20.8	18.2	70	10.1	0.0	---	0.00	0.0	---	18.2	17.9	17.9	30.559	0.00	0.00	1.950	0.000	82.4	15	30.1	78.9	1404	1	100.0	60
01/07/18	8:00 p	16.7	18.2	16.7	73	9.5	0.0	---	0.00	0.0	---	16.7	16.5	16.5	30.558	0.00	0.00	2.012	0.000	81.6	15	29.4	78.0	1405	1	100.0	60
01/07/18	9:00 p	16.4	16.7	16.4	75	9.9	0.0	---	0.00	0.0	---	16.4	16.2	16.2	30.528	0.00	0.00	2.025	0.000	81.3	15	29.2	77.8	1405	1	100.0	60
01/07/18	10:00 p	16.3	16.4	16.2	74	9.5	0.0	---	0.00	0.0	---	16.3	16.1	16.1	30.530	0.00	0.00	2.029	0.000	82.6	14	28.6	79.0	1405	1	100.0	60
01/07/18	11:00 p	15.1	16.3	15.1	75	8.6	0.0	---	0.00	0.0	---	15.1	14.9	14.9	30.514	0.00	0.00	2.079	0.000	83.2	14	29.0	79.8	1405	1	100.0	60
01/08/18	12:00 a	13.9	15.1	13.9	77	8.0	0.0	---	0.00	0.0	---	13.9	13.7	13.7	30.495	0.00	0.00	2.129	0.000	82.4	14	28.4	78.8	1405	1	100.0	60

MONDAY			Temp	Hi	Low	Out	Dew	Wind	Wind	Wind	Hi	Hi	Wind	Heat	THW			Rain	Heat	Cool	In 	In	In 	In 	Wind	Wind	ISS 	Arc.
Date		Time	Out	Temp	Temp	Hum	Pt.	Speed	Dir	Run	Speed	Dir	Chill	Index	Index	Bar  	Rain	Rate	D-D 	D-D 	Temp	Hum	Dew	Heat	Samp	Tx 	Recept	Int.
01/08/18	1:00 a	13.6	13.9	13.5	79	8.3	0.0	---	0.00	0.0	---	13.6	13.4	13.4	30.465	0.00	0.00	2.142	0.000	82.3	14	28.3	78.7	1404	1	100.0	60
01/08/18	2:00 a	14.0	14.0	13.5	80	9.0	0.0	---	0.00	0.0	---	14.0	13.8	13.8	30.450	0.00	0.00	2.125	0.000	81.8	14	27.9	78.1	1404	1	100.0	60
01/08/18	3:00 a	14.7	14.7	14.0	80	9.6	0.0	---	0.00	0.0	---	14.7	14.5	14.5	30.442	0.00	0.00	2.096	0.000	81.8	14	27.9	78.1	1405	1	100.0	60
01/08/18	4:00 a	14.1	14.7	14.1	80	9.1	0.0	---	0.00	0.0	---	14.1	13.9	13.9	30.411	0.00	0.00	2.121	0.000	81.5	14	27.7	77.9	1405	1	100.0	60
01/08/18	5:00 a	13.4	14.1	13.4	81	8.7	0.0	---	0.00	0.0	---	13.4	13.2	13.2	30.393	0.00	0.00	2.150	0.000	81.4	14	27.6	77.8	1405	1	100.0	60
01/08/18	6:00 a	13.0	13.4	12.9	83	8.8	0.0	---	0.00	0.0	---	13.0	12.9	12.9	30.382	0.00	0.00	2.167	0.000	81.0	14	27.3	77.4	1405	1	100.0	60
01/08/18	7:00 a	13.0	13.0	12.8	84	9.1	0.0	---	0.00	0.0	---	13.0	12.9	12.9	30.366	0.00	0.00	2.167	0.000	82.3	14	28.3	78.7	1405	1	100.0	60
01/08/18	8:00 a	13.6	13.7	13.0	83	9.4	0.0	---	0.00	0.0	---	13.6	13.5	13.5	30.371	0.00	0.00	2.142	0.000	82.7	13	26.8	79.0	1405	1	100.0	60
01/08/18	9:00 a	17.7	17.7	13.6	76	11.4	0.0	SW	0.00	4.0	SW	17.7	17.4	17.4	30.365	0.00	0.00	1.971	0.000	83.7	14	29.4	80.4	1405	1	100.0	60
01/08/18	10:00 a	25.9	25.9	17.7	59	13.5	0.0	SW	0.00	4.0	W	25.9	25.3	25.3	30.350	0.00	0.00	1.629	0.000	84.3	14	29.9	81.0	1404	1	100.0	60
01/08/18	11:00 a	31.5	31.5	25.9	51	15.4	0.0	SSW	0.00	6.0	SSW	31.5	30.6	30.6	30.336	0.00	0.00	1.396	0.000	84.7	14	30.2	81.4	1405	1	100.0	60
01/08/18	12:00 p	36.0	36.0	31.5	43	15.6	0.0	S	0.00	4.0	S	36.0	34.9	34.9	30.288	0.00	0.00	1.208	0.000	85.6	14	30.9	82.2	1405	1	100.0	60
01/08/18	1:00 p	40.5	40.5	36.0	43	19.7	0.0	---	0.00	0.0	---	40.5	39.2	39.2	30.261	0.00	0.00	1.021	0.000	85.2	14	30.6	81.9	1405	1	100.0	60
01/08/18	2:00 p	43.4	43.4	40.5	49	25.5	0.0	---	0.00	0.0	---	43.4	42.3	42.3	30.240	0.00	0.00	0.900	0.000	85.4	14	30.8	82.0	1405	1	100.0	60
01/08/18	3:00 p	44.7	44.9	43.4	46	25.2	0.0	---	0.00	0.0	---	44.7	43.4	43.4	30.224	0.00	0.00	0.846	0.000	84.7	15	31.9	81.4	1405	1	100.0	60
01/08/18	4:00 p	44.0	44.7	44.0	46	24.5	0.0	SSW	0.00	4.0	SSW	44.0	42.7	42.7	30.220	0.00	0.00	0.875	0.000	84.4	15	31.7	81.2	1405	1	100.0	60
01/08/18	5:00 p	42.0	44.0	42.0	51	25.2	0.0	---	0.00	0.0	---	42.0	40.9	40.9	30.228	0.00	0.00	0.958	0.000	84.2	15	31.5	81.0	1405	1	100.0	60
01/08/18	6:00 p	39.6	42.0	39.6	54	24.3	0.0	---	0.00	0.0	---	39.6	38.6	38.6	30.225	0.00	0.00	1.058	0.000	83.9	16	32.9	80.7	1405	1	100.0	60
01/08/18	7:00 p	38.8	39.6	38.8	57	24.9	0.0	---	0.00	0.0	---	38.8	37.9	37.9	30.221	0.00	0.00	1.092	0.000	84.0	16	33.0	80.8	1405	1	100.0	60
01/08/18	8:00 p	38.7	38.8	38.6	57	24.8	0.0	---	0.00	0.0	---	38.7	37.8	37.8	30.217	0.00	0.00	1.096	0.000	84.3	16	33.2	81.1	1404	1	100.0	60
01/08/18	9:00 p	38.7	38.9	38.7	61	26.4	0.0	---	0.00	0.0	---	38.7	37.9	37.9	30.199	0.00	0.00	1.096	0.000	83.8	16	32.8	80.6	1405	1	100.0	60
01/08/18	10:00 p	38.9	38.9	38.7	60	26.2	0.0	---	0.00	0.0	---	38.9	38.1	38.1	30.198	0.00	0.00	1.087	0.000	84.6	16	33.4	81.4	1405	1	100.0	60
01/08/18	11:00 p	38.8	38.9	38.8	63	27.3	0.0	---	0.00	0.0	---	38.8	38.1	38.1	30.186	0.00	0.00	1.092	0.000	83.9	17	34.4	80.8	1405	1	100.0	60
01/09/18	12:00 a	39.0	39.1	38.8	74	31.4	0.0	---	0.00	0.0	---	39.0	38.6	38.6	30.179	0.00	0.00	1.083	0.000	84.3	17	34.7	81.1	1405	1	100.0	60

TUESDAY			Temp	Hi	Low	Out	Dew	Wind	Wind	Wind	Hi	Hi	Wind	Heat	THW			Rain	Heat	Cool	In 	In	In 	In 	Wind	Wind	ISS 	Arc.
Date		Time	Out	Temp	Temp	Hum	Pt.	Speed	Dir	Run	Speed	Dir	Chill	Index	Index	Bar  	Rain	Rate	D-D 	D-D 	Temp	Hum	Dew	Heat	Samp	Tx 	Recept	Int.
01/09/18	1:00 a	37.7	39.0	37.7	85	33.6	0.0	---	0.00	0.0	---	37.7	37.5	37.5	30.165	0.00	0.00	1.137	0.000	84.1	17	34.6	81.0	1404	1	100.0	60
01/09/18	2:00 a	36.8	37.7	36.8	88	33.6	0.0	---	0.00	0.0	---	36.8	36.7	36.7	30.159	0.00	0.00	1.175	0.000	83.3	17	33.9	80.1	1405	1	100.0	60
01/09/18	3:00 a	37.1	37.1	36.7	88	33.9	0.0	---	0.00	0.0	---	37.1	37.0	37.0	30.170	0.00	0.00	1.163	0.000	82.6	17	33.4	79.3	1405	1	100.0	60
01/09/18	4:00 a	37.5	37.5	37.1	86	33.7	0.0	---	0.00	0.0	---	37.5	37.3	37.3	30.167	0.00	0.00	1.146	0.000	82.7	18	34.9	79.5	1405	1	100.0	60
01/09/18	5:00 a	36.8	37.5	36.8	86	33.0	0.0	---	0.00	0.0	---	36.8	36.6	36.6	30.166	0.00	0.00	1.175	0.000	82.2	18	34.5	78.9	1404	1	100.0	60
01/09/18	6:00 a	37.4	37.4	36.5	86	33.6	0.0	---	0.00	0.0	---	37.4	37.2	37.2	30.172	0.00	0.00	1.150	0.000	81.5	18	33.9	78.2	1405	1	100.0	60
01/09/18	7:00 a	37.8	38.0	37.4	83	33.1	0.0	---	0.00	0.0	---	37.8	37.6	37.6	30.192	0.00	0.00	1.133	0.000	81.5	18	33.9	78.2	1405	1	100.0	60
01/09/18	8:00 a	37.7	37.9	37.7	84	33.3	0.0	---	0.00	0.0	---	37.7	37.5	37.5	30.216	0.01	0.00	1.137	0.000	82.1	18	34.4	78.8	1405	1	100.0	60
01/09/18	9:00 a	39.9	39.9	37.6	85	35.8	0.0	---	0.00	0.0	---	39.9	39.7	39.7	30.239	0.00	0.00	1.046	0.000	82.4	18	34.6	79.2	1405	1	100.0	60
01/09/18	10:00 a	43.1	43.1	39.9	82	38.0	0.0	---	0.00	0.0	---	43.1	42.9	42.9	30.252	0.00	0.00	0.913	0.000	83.7	18	35.7	80.6	1405	1	100.0	60
01/09/18	11:00 a	45.4	45.4	43.1	78	38.9	0.0	NNW	0.00	4.0	NNW	45.4	45.1	45.1	30.257	0.00	0.00	0.817	0.000	82.8	19	36.3	79.7	1405	1	100.0	60
01/09/18	12:00 p	45.9	45.9	45.4	77	39.1	0.0	NW	0.00	11.0	NW	45.9	45.6	45.6	30.231	0.00	0.00	0.796	0.000	81.7	20	36.7	78.6	1405	1	100.0	60
01/09/18	1:00 p	47.8	47.8	45.9	74	39.9	0.0	NE	0.00	7.0	NE	47.8	47.5	47.5	30.213	0.00	0.00	0.717	0.000	81.5	20	36.5	78.4	1405	1	100.0	60
01/09/18	2:00 p	49.1	49.1	47.8	73	40.8	0.0	ENE	0.00	4.0	ENE	49.1	48.8	48.8	30.216	0.00	0.00	0.663	0.000	81.1	20	36.2	78.0	1405	1	100.0	60
01/09/18	3:00 p	50.1	50.1	49.1	72	41.4	0.0	NW	0.00	4.0	NW	50.1	49.8	49.8	30.233	0.00	0.00	0.621	0.000	81.2	21	37.5	78.2	1405	1	100.0	60
01/09/18	4:00 p	50.2	50.5	50.1	69	40.4	0.0	---	0.00	0.0	---	50.2	49.7	49.7	30.251	0.00	0.00	0.617	0.000	80.7	21	37.1	77.7	1405	1	100.0	60
01/09/18	5:00 p	48.3	50.2	48.3	71	39.3	0.0	---	0.00	0.0	---	48.3	47.9	47.9	30.275	0.00	0.00	0.696	0.000	80.1	21	36.6	77.2	1405	1	100.0	60
01/09/18	6:00 p	45.1	48.3	45.1	75	37.6	0.0	---	0.00	0.0	---	45.1	44.7	44.7	30.298	0.00	0.00	0.829	0.000	80.3	21	36.8	77.4	1404	1	100.0	60
01/09/18	7:00 p	41.1	45.1	41.1	82	36.0	0.0	---	0.00	0.0	---	41.1	40.8	40.8	30.310	0.00	0.00	0.996	0.000	79.8	21	36.4	76.9	1405	1	100.0	60
01/09/18	8:00 p	38.6	41.1	38.6	84	34.2	0.0	---	0.00	0.0	---	38.6	38.4	38.4	30.323	0.00	0.00	1.100	0.000	83.1	20	37.9	80.1	1405	1	100.0	60
01/09/18	9:00 p	36.3	38.6	36.3	86	32.5	0.0	---	0.00	0.0	---	36.3	36.1	36.1	30.326	0.00	0.00	1.196	0.000	82.8	20	37.6	79.8	1405	1	100.0	60
01/09/18	10:00 p	33.9	36.3	33.9	88	30.7	0.0	---	0.00	0.0	---	33.9	33.7	33.7	30.343	0.00	0.00	1.296	0.000	82.7	19	36.2	79.6	1405	1	100.0	60
01/09/18	11:00 p	32.1	33.9	32.1	90	29.5	0.0	---	0.00	0.0	---	32.1	32.0	32.0	30.350	0.00	0.00	1.371	0.000	81.9	19	35.6	78.7	1405	1	100.0	60
01/10/18	12:00 a	30.8	32.1	30.8	91	28.5	0.0	---	0.00	0.0	---	30.8	30.6	30.6	30.344	0.00	0.00	1.425	0.000	81.1	19	34.9	77.9	1405	1	100.0	60

WEDNESDAY		Temp	Hi	Low	Out	Dew	Wind	Wind	Wind	Hi	Hi	Wind	Heat	THW			Rain	Heat	Cool	In 	In	In 	In 	Wind	Wind	ISS 	Arc.
Date		Time	Out	Temp	Temp	Hum	Pt.	Speed	Dir	Run	Speed	Dir	Chill	Index	Index	Bar  	Rain	Rate	D-D 	D-D 	Temp	Hum	Dew	Heat	Samp	Tx 	Recept	Int.
01/10/18	1:00 a	30.0	30.8	30.0	93	28.2	0.0	---	0.00	0.0	---	30.0	29.9	29.9	30.337	0.00	0.00	1.458	0.000	80.6	19	34.5	77.5	1404	1	100.0	60
01/10/18	2:00 a	29.3	30.0	29.3	93	27.5	0.0	---	0.00	0.0	---	29.3	29.2	29.2	30.342	0.00	0.00	1.488	0.000	80.7	19	34.6	77.5	1404	1	100.0	60
01/10/18	3:00 a	29.2	29.4	29.2	93	27.4	0.0	---	0.00	0.0	---	29.2	29.1	29.1	30.358	0.00	0.00	1.492	0.000	80.3	19	34.3	77.2	1405	1	100.0	60
01/10/18	4:00 a	28.8	29.2	28.8	93	27.0	0.0	---	0.00	0.0	---	28.8	28.7	28.7	30.359	0.00	0.00	1.508	0.000	80.5	19	34.4	77.4	1405	1	100.0	60
01/10/18	5:00 a	28.3	28.8	28.3	93	26.5	0.0	---	0.00	0.0	---	28.3	28.2	28.2	30.372	0.00	0.00	1.529	0.000	80.0	19	34.0	76.9	1405	1	100.0	60
01/10/18	6:00 a	27.8	28.3	27.8	94	26.3	0.0	---	0.00	0.0	---	27.8	27.7	27.7	30.396	0.00	0.00	1.550	0.000	80.3	19	34.3	77.2	1405	1	100.0	60
01/10/18	7:00 a	27.3	27.8	27.3	94	25.8	0.0	---	0.00	0.0	---	27.3	27.2	27.2	30.401	0.00	0.00	1.571	0.000	81.1	19	34.9	77.9	1405	1	100.0	60
01/10/18	8:00 a	27.6	27.6	27.2	95	26.4	0.0	---	0.00	0.0	---	27.6	27.5	27.5	30.423	0.00	0.00	1.558	0.000	81.0	19	34.8	77.8	1405	1	100.0	60
01/10/18	9:00 a	31.5	31.5	27.6	97	30.7	0.0	---	0.00	0.0	---	31.5	31.5	31.5	30.433	0.00	0.00	1.396	0.000	82.4	19	36.0	79.2	1405	1	100.0	60
01/10/18	10:00 a	40.2	40.2	31.5	95	38.9	0.0	---	0.00	0.0	---	40.2	40.3	40.3	30.440	0.00	0.00	1.033	0.000	83.0	19	36.5	79.9	1405	1	100.0	60
01/10/18	11:00 a	47.3	47.3	40.2	79	41.1	0.0	NE	0.00	6.0	NE	47.3	47.1	47.1	30.427	0.00	0.00	0.738	0.000	84.3	19	37.5	81.2	1404	1	100.0	60
01/10/18	12:00 p	51.9	51.9	47.3	74	43.9	0.0	ENE	0.00	6.0	ENE	51.9	51.5	51.5	30.384	0.00	0.00	0.546	0.000	85.4	19	38.4	82.2	1405	1	100.0	60
01/10/18	1:00 p	53.6	53.6	52.0	72	44.8	0.0	E	0.00	4.0	ENE	53.6	53.0	53.0	30.360	0.00	0.00	0.475	0.000	86.3	19	39.2	83.0	1405	1	100.0	60
01/10/18	2:00 p	48.8	54.1	48.8	72	40.2	0.0	NNW	0.00	13.0	NW	48.8	48.4	48.4	30.359	0.00	0.00	0.675	0.000	85.9	19	38.8	82.7	1405	1	100.0	60
01/10/18	3:00 p	47.5	48.8	47.5	76	40.3	0.0	ENE	0.00	5.0	NNW	47.5	47.2	47.2	30.353	0.00	0.00	0.729	0.000	85.9	19	38.8	82.7	1405	1	100.0	60
01/10/18	4:00 p	46.1	47.5	46.1	76	39.0	0.0	ENE	0.00	4.0	ENE	46.1	45.7	45.7	30.362	0.00	0.00	0.788	0.000	85.6	19	38.6	82.4	1405	1	100.0	60
01/10/18	5:00 p	44.8	46.1	44.7	78	38.4	0.0	NE	0.00	7.0	NE	44.8	44.5	44.5	30.367	0.00	0.00	0.842	0.000	85.6	20	39.9	82.4	1405	1	100.0	60
01/10/18	6:00 p	43.1	44.8	43.1	81	37.7	0.0	NE	0.00	4.0	ENE	43.1	42.8	42.8	30.375	0.00	0.00	0.913	0.000	84.9	20	39.3	81.7	1405	1	100.0	60
01/10/18	7:00 p	41.9	43.1	41.9	83	37.1	0.0	---	0.00	0.0	---	41.9	41.7	41.7	30.381	0.00	0.00	0.962	0.000	83.7	20	38.4	80.7	1405	1	100.0	60
01/10/18	8:00 p	40.2	41.9	40.2	85	36.1	0.0	---	0.00	0.0	---	40.2	40.0	40.0	30.375	0.00	0.00	1.033	0.000	83.5	20	38.2	80.5	1405	1	100.0	60
01/10/18	9:00 p	38.6	40.2	38.6	88	35.4	0.0	---	0.00	0.0	---	38.6	38.5	38.5	30.366	0.00	0.00	1.100	0.000	82.9	21	38.9	80.0	1405	1	100.0	60
01/10/18	10:00 p	38.8	38.8	38.3	92	36.7	0.0	E	0.00	4.0	E	38.8	38.7	38.7	30.367	0.00	0.00	1.092	0.000	82.6	21	38.7	79.7	1405	1	100.0	60
01/10/18	11:00 p	38.1	38.8	38.0	91	35.7	0.0	---	0.00	0.0	---	38.1	38.0	38.0	30.366	0.00	0.00	1.121	0.000	81.8	21	38.0	78.8	1404	1	100.0	60

THURSDAY		Temp	Hi	Low	Out	Dew	Wind	Wind	Wind	Hi	Hi	Wind	Heat	THW			Rain	Heat	Cool	In 	In	In 	In 	Wind	Wind	ISS 	Arc.
Date		Time	Out	Temp	Temp	Hum	Pt.	Speed	Dir	Run	Speed	Dir	Chill	Index	Index	Bar  	Rain	Rate	D-D 	D-D 	Temp	Hum	Dew	Heat	Samp	Tx 	Recept	Int.
01/11/18	1:00 a	37.5	37.6	37.1	93	35.7	0.0	---	0.00	0.0	---	37.5	37.5	37.5	30.336	0.00	0.00	1.146	0.000	80.8	21	37.2	77.8	1404	1	100.0	60
01/11/18	2:00 a	37.8	37.8	37.4	94	36.2	0.0	---	0.00	0.0	---	37.8	37.8	37.8	30.336	0.00	0.00	1.133	0.000	81.0	21	37.4	78.0	1405	1	100.0	60
01/11/18	3:00 a	37.9	38.1	37.8	93	36.1	0.0	---	0.00	0.0	---	37.9	37.9	37.9	30.325	0.00	0.00	1.129	0.000	81.1	21	37.5	78.1	1405	1	100.0	60
01/11/18	4:00 a	37.3	37.9	37.3	93	35.5	0.0	---	0.00	0.0	---	37.3	37.3	37.3	30.326	0.00	0.00	1.154	0.000	80.8	21	37.2	77.8	1405	1	100.0	60
01/11/18	5:00 a	36.8	37.3	36.8	93	35.0	0.0	---	0.00	0.0	---	36.8	36.8	36.8	30.323	0.00	0.00	1.175	0.000	80.4	21	36.9	77.5	1405	1	100.0	60
01/11/18	6:00 a	36.4	36.8	36.4	94	34.8	0.0	---	0.00	0.0	---	36.4	36.4	36.4	30.325	0.00	0.00	1.192	0.000	81.2	21	37.5	78.2	1405	1	100.0	60
01/11/18	7:00 a	36.6	36.6	36.4	95	35.3	0.0	---	0.00	0.0	---	36.6	36.6	36.6	30.326	0.00	0.00	1.183	0.000	82.5	21	38.6	79.6	1405	1	100.0	60
01/11/18	8:00 a	37.9	37.9	36.6	96	36.9	0.0	---	0.00	0.0	---	37.9	37.9	37.9	30.341	0.00	0.00	1.129	0.000	82.4	21	38.5	79.4	1404	1	100.0	60
01/11/18	9:00 a	45.4	45.4	37.9	99	45.1	0.0	---	0.00	0.0	---	45.4	45.8	45.8	30.355	0.00	0.00	0.817	0.000	82.4	21	38.5	79.4	1405	1	100.0	60
01/11/18	10:00 a	53.6	53.6	45.4	100	53.6	0.0	SE	0.00	5.0	SE	53.6	54.0	54.0	30.362	0.00	0.00	0.475	0.000	80.4	24	40.3	77.8	1405	1	100.0	60
01/11/18	11:00 a	59.9	59.9	53.6	87	56.0	0.0	E	0.00	10.0	SE	59.9	60.1	60.1	30.352	0.00	0.00	0.212	0.000	80.6	24	40.5	77.9	1405	1	100.0	60
01/11/18	12:00 p	63.5	63.5	59.9	80	57.2	0.0	SE	0.00	12.0	SE	63.5	63.9	63.9	30.312	0.00	0.00	0.063	0.000	81.2	25	42.0	78.6	1405	1	100.0	60
01/11/18	1:00 p	65.9	66.0	63.5	78	58.8	0.0	SE	0.00	16.0	ESE	65.9	66.6	66.6	30.274	0.00	0.00	0.000	0.038	81.3	25	42.1	78.7	1405	1	100.0	60
01/11/18	2:00 p	66.5	66.7	66.0	79	59.8	0.0	SE	0.00	10.0	SE	66.5	67.4	67.4	30.252	0.00	0.00	0.000	0.063	81.3	26	43.1	78.9	1405	1	100.0	60
01/11/18	3:00 p	64.7	66.5	64.7	84	59.8	0.0	SSE	0.00	13.0	ESE	64.7	65.4	65.4	30.233	0.00	0.00	0.013	0.000	81.9	26	43.6	79.5	1405	1	100.0	60
01/11/18	4:00 p	64.2	64.7	64.2	85	59.6	0.0	ESE	0.00	15.0	SE	64.2	64.8	64.8	30.233	0.00	0.00	0.033	0.000	81.3	26	43.1	78.9	1405	1	100.0	60
01/11/18	5:00 p	62.3	64.2	62.3	87	58.4	0.0	SSE	0.00	11.0	SSE	62.3	62.7	62.7	30.226	0.00	0.00	0.113	0.000	80.3	27	43.3	78.0	1405	1	100.0	60
01/11/18	6:00 p	60.0	62.3	60.0	90	57.1	0.0	---	0.00	0.0	---	60.0	60.3	60.3	30.224	0.00	0.00	0.208	0.000	80.9	27	43.8	78.5	1405	1	100.0	60
01/11/18	7:00 p	58.5	60.0	58.5	93	56.5	0.0	---	0.00	0.0	---	58.5	58.8	58.8	30.222	0.00	0.00	0.271	0.000	84.5	24	43.7	81.8	1405	1	100.0	60
01/11/18	8:00 p	58.3	58.5	58.3	94	56.6	0.0	---	0.00	0.0	---	58.3	58.6	58.6	30.209	0.00	0.00	0.279	0.000	83.9	24	43.2	81.3	1405	1	100.0	60
01/11/18	9:00 p	58.4	58.4	58.2	95	57.0	0.0	---	0.00	0.0	---	58.4	58.7	58.7	30.180	0.00	0.00	0.275	0.000	83.3	24	42.7	80.6	1404	1	100.0	60
01/11/18	10:00 p	59.7	59.7	58.3	96	58.6	0.0	SE	0.00	14.0	ESE	59.7	60.1	60.1	30.163	0.00	0.00	0.221	0.000	82.5	24	42.1	79.9	1405	1	100.0	60
01/11/18	11:00 p	59.2	59.8	59.2	96	58.1	0.0	ESE	0.00	7.0	SE	59.2	59.6	59.6	30.135	0.00	0.00	0.242	0.000	83.4	24	42.8	80.8	1406	1	100.0	60
01/12/18	12:00 a	59.2	59.3	58.8	98	58.6	0.0	ESE	0.00	5.0	ESE	59.2	59.7	59.7	30.100	0.00	0.00	0.242	0.000	82.2	25	42.9	79.7	1404	1	100.0	60

FRIDAY			Temp	Hi	Low	Out	Dew	Wind	Wind	Wind	Hi	Hi	Wind	Heat	THW			Rain	Heat	Cool	In 	In	In 	In 	Wind	Wind	ISS 	Arc.
Date		Time	Out	Temp	Temp	Hum	Pt.	Speed	Dir	Run	Speed	Dir	Chill	Index	Index	Bar  	Rain	Rate	D-D 	D-D 	Temp	Hum	Dew	Heat	Samp	Tx 	Recept	Int.
01/12/18	1:00 a	59.4	59.5	59.3	98	58.8	0.0	ESE	0.00	12.0	SE	59.4	59.9	59.9	30.056	0.00	0.00	0.233	0.000	82.7	25	43.3	80.1	1404	1	100.0	60
01/12/18	2:00 a	59.6	59.6	59.4	99	59.3	0.0	---	0.00	0.0	---	59.6	60.1	60.1	30.039	0.00	0.00	0.225	0.000	83.4	25	43.9	80.8	1405	1	100.0	60
01/12/18	3:00 a	62.1	62.1	59.6	100	62.1	0.0	---	0.00	0.0	---	62.1	62.9	62.9	30.009	0.00	0.00	0.121	0.000	82.4	25	43.0	79.9	1405	1	100.0	60
01/12/18	4:00 a	63.8	63.8	62.1	99	63.5	0.0	SSE	0.00	17.0	SSE	63.8	64.9	64.9	29.984	0.00	0.00	0.050	0.000	82.5	26	44.1	80.1	1405	1	100.0	60
01/12/18	5:00 a	64.0	64.0	63.8	98	63.4	0.0	SSE	0.00	11.0	SSE	64.0	65.1	65.1	29.968	0.00	0.00	0.042	0.000	83.5	26	45.0	81.1	1405	1	100.0	60
01/12/18	6:00 a	64.6	64.6	64.0	98	64.0	0.0	SSE	0.00	18.0	SE	64.6	65.8	65.8	29.957	0.00	0.00	0.017	0.000	82.4	26	44.1	80.0	1405	1	100.0	60
01/12/18	7:00 a	65.0	65.0	64.5	98	64.4	0.0	SE	0.00	17.0	S	65.0	66.3	66.3	29.947	0.00	0.00	0.000	0.000	83.2	26	44.7	80.7	1405	1	100.0	60
01/12/18	8:00 a	65.7	65.7	65.0	98	65.1	0.0	SE	0.00	13.0	SSE	65.7	67.1	67.1	29.938	0.00	0.00	0.000	0.029	82.9	27	45.5	80.6	1405	1	100.0	60
01/12/18	9:00 a	66.8	66.8	65.7	97	65.9	0.0	SSE	0.00	13.0	SSE	66.8	68.4	68.4	29.924	0.00	0.00	0.000	0.075	84.7	26	46.0	82.3	1404	1	100.0	60
01/12/18	10:00 a	68.4	68.4	66.8	96	67.2	0.0	S	0.00	15.0	SE	68.4	70.5	70.5	29.909	0.00	0.00	0.000	0.142	80.2	30	45.9	78.2	1405	1	100.0	60
01/12/18	11:00 a	70.1	70.1	68.4	93	68.0	4.0	SSE	4.00	19.0	SSW	70.1	72.4	72.4	29.872	0.00	0.00	0.000	0.212	78.9	31	45.7	77.2	1405	1	100.0	60
01/12/18	12:00 p	71.9	71.9	70.1	91	69.1	0.0	S	0.00	24.0	SSE	71.9	74.2	74.2	29.837	0.00	0.00	0.000	0.288	79.2	32	46.8	77.6	1405	1	100.0	60
01/12/18	1:00 p	72.7	72.7	71.9	90	69.6	0.0	SE	0.00	7.0	SE	72.7	75.1	75.1	29.797	0.00	0.00	0.000	0.321	79.9	32	47.4	78.1	1405	1	100.0	60
01/12/18	2:00 p	71.6	73.2	71.6	94	69.8	0.0	SSE	0.00	13.0	S	71.6	74.2	74.2	29.767	0.18	0.18	0.000	0.275	80.3	32	47.7	78.5	1405	1	100.0	60
01/12/18	3:00 p	70.7	71.7	70.7	96	69.5	0.0	E	0.00	4.0	E	70.7	73.5	73.5	29.742	0.00	0.00	0.000	0.237	80.5	33	48.7	78.8	1405	1	100.0	60
01/12/18	4:00 p	68.7	70.7	68.7	97	67.8	0.0	S	0.00	15.0	SSE	68.7	71.1	71.1	29.722	0.20	0.20	0.000	0.154	80.3	33	48.6	78.6	1405	1	100.0	60
01/12/18	5:00 p	68.1	68.7	68.1	98	67.5	0.0	SSE	0.00	7.0	SSE	68.1	70.1	70.1	29.703	0.04	0.04	0.000	0.129	80.0	33	48.3	78.3	1405	1	100.0	60
01/12/18	6:00 p	67.6	68.1	67.6	98	67.0	0.0	SSE	0.00	11.0	S	67.6	69.5	69.5	29.695	0.05	0.05	0.000	0.108	80.7	32	48.1	78.9	1405	1	100.0	60
01/12/18	7:00 p	66.6	67.6	66.6	98	66.0	0.0	S	0.00	5.0	S	66.6	68.2	68.2	29.680	0.01	0.01	0.000	0.067	80.0	33	48.3	78.3	1405	1	100.0	60
01/12/18	8:00 p	65.2	66.6	65.2	98	64.6	0.0	ESE	0.00	6.0	ESE	65.2	66.5	66.5	29.656	0.10	0.10	0.000	0.008	83.7	31	49.9	82.1	1404	1	100.0	60
01/12/18	9:00 p	64.1	65.2	64.1	99	63.8	0.0	SE	0.00	12.0	SE	64.1	65.2	65.2	29.618	0.01	0.01	0.038	0.000	83.4	30	48.7	81.5	1405	1	100.0	60
01/12/18	10:00 p	64.1	64.1	63.8	99	63.8	0.0	SE	0.00	4.0	SE	64.1	65.2	65.2	29.610	0.00	0.00	0.038	0.000	84.2	29	48.5	82.3	1405	1	100.0	60
01/12/18	11:00 p	64.4	64.4	64.1	99	64.1	0.0	SE	0.00	15.0	SSE	64.4	65.6	65.6	29.564	0.00	0.00	0.025	0.000	83.3	30	48.6	81.4	1404	1	100.0	60
01/13/18	12:00 a	64.5	64.5	64.4	99	64.2	0.0	SE	0.00	4.0	SE	64.5	65.7	65.7	29.545	0.21	0.21	0.021	0.000	84.3	31	50.4	82.8	1399	1	100.0	60

SATURDAY		Temp	Hi	Low	Out	Dew	Wind	Wind	Wind	Hi	Hi	Wind	Heat	THW			Rain	Heat	Cool	In 	In	In 	In 	Wind	Wind	ISS 	Arc.
Date		Time	Out	Temp	Temp	Hum	Pt.	Speed	Dir	Run	Speed	Dir	Chill	Index	Index	Bar  	Rain	Rate	D-D 	D-D 	Temp	Hum	Dew	Heat	Samp	Tx 	Recept	Int.
01/13/18	1:00 a	64.5	64.5	64.4	100	64.5	0.0	---	0.00	0.0	---	64.5	65.7	65.7	29.510	0.00	0.00	0.021	0.000	84.7	31	50.7	83.1	1403	1	100.0	60
01/13/18	2:00 a	62.0	64.5	61.9	97	61.1	0.0	SSW	0.00	17.0	W	62.0	62.7	62.7	29.548	0.01	0.01	0.125	0.000	83.9	31	50.0	82.4	1405	1	100.0	60
01/13/18	3:00 a	59.5	61.9	59.5	96	58.4	0.0	SSW	0.00	19.0	SW	59.5	59.9	59.9	29.570	0.00	0.00	0.229	0.000	84.7	31	50.7	83.1	1405	1	100.0	60
01/13/18	4:00 a	58.4	59.5	58.3	95	57.0	0.0	SSW	0.00	23.0	SW	58.4	58.7	58.7	29.590	0.00	0.00	0.275	0.000	83.4	31	49.6	81.7	1405	1	100.0	60
01/13/18	5:00 a	58.0	58.4	58.0	94	56.3	4.0	SSW	4.00	27.0	SSE	58.0	58.3	58.3	29.628	0.00	0.00	0.292	0.000	84.1	30	49.3	82.4	1405	1	100.0	60
01/13/18	6:00 a	57.8	58.0	57.8	93	55.8	4.0	SSW	4.00	17.0	WSW	57.8	58.0	58.0	29.672	0.00	0.00	0.300	0.000	84.2	30	49.4	82.5	1405	1	100.0	60
01/13/18	7:00 a	57.7	57.9	57.7	92	55.4	4.0	SSW	4.00	18.0	SSW	57.7	57.9	57.9	29.709	0.00	0.00	0.304	0.000	84.0	31	50.1	82.5	1405	1	100.0	60
01/13/18	8:00 a	56.4	57.7	56.4	92	54.1	0.0	SSW	0.00	14.0	SW	56.4	56.5	56.5	29.742	0.00	0.00	0.358	0.000	83.9	30	49.1	82.2	1405	1	100.0	60
01/13/18	9:00 a	57.8	57.8	56.3	91	55.2	0.0	SSW	0.00	15.0	SSE	57.8	57.9	57.9	29.798	0.00	0.00	0.300	0.000	84.3	30	49.5	82.6	1405	1	100.0	60
01/13/18	10:00 a	47.8	58.1	47.8	83	42.9	5.0	NNW	5.00	29.0	NNE	45.7	47.8	45.7	29.892	0.00	0.00	0.717	0.000	83.6	30	48.9	81.8	1404	1	100.0	60
01/13/18	11:00 a	43.4	47.8	43.4	85	39.2	6.0	NE	6.00	22.0	NNE	39.8	43.3	39.7	29.947	0.00	0.00	0.900	0.000	84.2	30	49.4	82.5	1405	1	100.0	60
01/13/18	12:00 p	42.5	43.4	42.5	83	37.7	7.0	NNW	7.00	20.0	N	38.2	42.3	38.0	29.958	0.00	0.00	0.938	0.000	84.2	29	48.5	82.3	1405	1	100.0	60
01/13/18	1:00 p	40.6	42.5	40.6	78	34.3	7.0	NNW	7.00	23.0	NNW	35.8	40.2	35.4	29.990	0.00	0.00	1.017	0.000	83.4	29	47.8	81.4	1405	1	100.0	60
01/13/18	2:00 p	39.3	40.6	39.2	76	32.4	6.0	NNW	6.00	22.0	NNW	34.9	38.9	34.5	30.015	0.00	0.00	1.071	0.000	83.0	29	47.5	80.9	1405	1	100.0	60
01/13/18	3:00 p	38.8	39.3	38.8	74	31.2	5.0	NNW	5.00	23.0	NW	35.1	38.4	34.7	30.069	0.00	0.00	1.092	0.000	82.6	29	47.1	80.5	1405	1	100.0	60
01/13/18	4:00 p	38.5	38.9	38.4	73	30.6	6.0	NNW	6.00	21.0	NW	34.0	38.0	33.5	30.110	0.00	0.00	1.104	0.000	82.8	28	46.4	80.6	1405	1	100.0	60
01/13/18	5:00 p	37.7	38.7	37.7	68	28.1	6.0	NW	6.00	22.0	NW	33.0	37.1	32.4	30.155	0.00	0.00	1.137	0.000	83.4	28	46.9	81.2	1405	1	100.0	60
01/13/18	6:00 p	36.8	37.7	36.8	67	26.9	6.0	NW	6.00	22.0	NNW	31.9	36.1	31.2	30.197	0.00	0.00	1.175	0.000	83.6	27	46.1	81.3	1405	1	100.0	60
01/13/18	7:00 p	36.4	36.8	36.4	63	25.0	7.0	NNW	7.00	22.0	NNW	30.8	35.7	30.1	30.238	0.00	0.00	1.192	0.000	83.0	28	46.5	80.8	1405	1	100.0	60
01/13/18	8:00 p	35.9	36.4	35.9	63	24.5	10.0	NNW	10.00	18.0	NW	28.6	35.2	27.9	30.268	0.00	0.00	1.212	0.000	82.3	27	45.0	80.0	1405	1	100.0	60
01/13/18	9:00 p	35.3	35.9	35.3	62	23.6	7.0	NNW	7.00	22.0	NNW	29.5	34.6	28.8	30.308	0.00	0.00	1.238	0.000	82.2	26	43.9	79.8	1404	1	100.0	60
01/13/18	10:00 p	33.9	35.3	33.9	61	21.9	7.0	NNW	7.00	26.0	NNW	27.8	33.2	27.1	30.349	0.00	0.00	1.296	0.000	82.4	25	43.0	79.9	1405	1	100.0	60
01/13/18	11:00 p	31.9	33.9	31.9	61	20.0	6.0	NNW	6.00	24.0	NW	26.1	31.2	25.4	30.386	0.00	0.00	1.379	0.000	82.0	25	42.7	79.5	1405	1	100.0	60
01/14/18	12:00 a	29.8	31.9	29.8	60	17.6	4.0	NW	4.00	21.0	NNW	25.5	29.1	24.8	30.405	0.00	0.00	1.467	0.000	81.5	24	41.2	78.8	1405	1	100.0	60

SUNDAY			Temp	Hi	Low	Out	Dew	Wind	Wind	Wind	Hi	Hi	Wind	Heat	THW			Rain	Heat	Cool	In 	In	In 	In 	Wind	Wind	ISS 	Arc.
Date		Time	Out	Temp	Temp	Hum	Pt.	Speed	Dir	Run	Speed	Dir	Chill	Index	Index	Bar  	Rain	Rate	D-D 	D-D 	Temp	Hum	Dew	Heat	Samp	Tx 	Recept	Int.
01/14/18	1:00 a	28.7	29.8	28.7	62	17.3	4.0	NNW	4.00	27.0	NNW	24.3	28.1	23.7	30.418	0.00	0.00	1.512	0.000	82.7	23	41.1	79.9	1404	1	100.0	60
01/14/18	2:00 a	27.1	28.7	27.1	63	16.2	4.0	NW	4.00	28.0	NW	22.4	26.6	21.9	30.433	0.00	0.00	1.579	0.000	81.8	23	40.4	79.0	1404	1	100.0	60
01/14/18	3:00 a	25.9	27.2	25.9	64	15.4	0.0	NW	0.00	23.0	NNW	25.9	25.4	25.4	30.449	0.00	0.00	1.629	0.000	82.1	22	39.5	79.2	1405	1	100.0	60
01/14/18	4:00 a	24.9	25.9	24.9	63	14.1	0.0	NNW	0.00	24.0	NW	24.9	24.4	24.4	30.476	0.00	0.00	1.671	0.000	81.7	22	39.1	78.8	1405	1	100.0	60
01/14/18	5:00 a	23.7	24.9	23.7	64	13.3	0.0	NW	0.00	24.0	NNW	23.7	23.2	23.2	30.480	0.00	0.00	1.721	0.000	81.4	22	38.9	78.5	1404	1	100.0	60
01/14/18	6:00 a	23.0	23.7	23.0	64	12.6	0.0	NNW	0.00	19.0	N	23.0	22.6	22.6	30.514	0.00	0.00	1.750	0.000	81.8	21	38.0	78.8	1405	1	100.0	60
01/14/18	7:00 a	22.7	23.0	22.7	65	12.7	0.0	NW	0.00	20.0	ENE	22.7	22.3	22.3	30.544	0.00	0.00	1.762	0.000	82.0	21	38.2	79.0	1405	1	100.0	60
01/14/18	8:00 a	22.4	22.7	22.2	66	12.8	0.0	NNW	0.00	24.0	NW	22.4	22.0	22.0	30.570	0.00	0.00	1.775	0.000	82.5	20	37.4	79.5	1404	1	100.0	60
01/14/18	9:00 a	23.1	23.1	22.4	67	13.8	0.0	NNW	0.00	22.0	NNW	23.1	22.7	22.7	30.588	0.00	0.00	1.746	0.000	82.1	20	37.0	79.0	1405	1	100.0	60
01/14/18	10:00 a	24.4	24.4	23.1	66	14.7	0.0	NNW	0.00	20.0	NNW	24.4	23.9	23.9	30.604	0.00	0.00	1.692	0.000	83.5	20	38.2	80.5	1405	1	100.0	60
01/14/18	11:00 a	25.4	25.4	24.4	66	15.6	4.0	NNW	4.00	24.0	NNW	20.5	24.9	20.0	30.605	0.00	0.00	1.650	0.000	83.8	19	37.1	80.8	1405	1	100.0	60
01/14/18	12:00 p	26.4	26.4	25.4	65	16.2	0.0	NW	0.00	25.0	NW	26.4	25.9	25.9	30.585	0.00	0.00	1.608	0.000	85.2	19	38.3	82.0	1404	1	100.0	60
01/14/18	1:00 p	27.2	27.2	26.4	66	17.3	0.0	NE	0.00	22.0	NE	27.2	26.7	26.7	30.563	0.00	0.00	1.575	0.000	85.7	19	38.7	82.5	1405	1	100.0	60
01/14/18	2:00 p	27.7	27.8	27.2	65	17.5	0.0	NE	0.00	20.0	NE	27.7	27.2	27.2	30.552	0.00	0.00	1.554	0.000	85.3	19	38.4	82.1	1403	1	100.0	60
01/14/18	3:00 p	27.8	27.8	27.5	66	17.9	0.0	NE	0.00	19.0	NE	27.8	27.3	27.3	30.554	0.00	0.00	1.550	0.000	86.5	19	39.3	83.2	1405	1	100.0	60
01/14/18	4:00 p	27.2	27.9	27.2	68	18.0	0.0	NE	0.00	20.0	NNW	27.2	26.7	26.7	30.558	0.00	0.00	1.575	0.000	85.2	18	36.9	82.0	1405	1	100.0	60
01/14/18	5:00 p	26.0	27.2	26.0	69	17.2	0.0	NE	0.00	21.0	NE	26.0	25.6	25.6	30.554	0.00	0.00	1.625	0.000	85.2	18	36.9	82.0	1405	1	100.0	60
01/14/18	6:00 p	25.4	26.0	25.4	67	16.0	0.0	NE	0.00	23.0	NE	25.4	24.9	24.9	30.553	0.00	0.00	1.650	0.000	85.5	18	37.1	82.2	1405	1	100.0	60
01/14/18	7:00 p	25.3	25.4	25.3	71	17.2	0.0	ENE	0.00	16.0	ENE	25.3	24.9	24.9	30.584	0.00	0.00	1.654	0.000	85.4	18	37.1	82.1	1405	1	100.0	60
01/14/18	8:00 p	25.6	25.6	25.3	72	17.8	0.0	NE	0.00	13.0	E	25.6	25.2	25.2	30.585	0.00	0.00	1.642	0.000	84.5	18	36.3	81.3	1405	1	100.0	60
01/14/18	9:00 p	26.0	26.0	25.6	71	17.9	0.0	ENE	0.00	6.0	N	26.0	25.6	25.6	30.581	0.00	0.00	1.625	0.000	84.6	18	36.4	81.4	1405	1	100.0	60
01/14/18	10:00 p	26.3	26.3	26.0	67	16.8	0.0	NE	0.00	10.0	NNE	26.3	25.8	25.8	30.569	0.00	0.00	1.613	0.000	84.3	18	36.2	81.2	1405	1	100.0	60
01/14/18	11:00 p	25.8	26.3	25.8	70	17.4	0.0	NE	0.00	23.0	ENE	25.8	25.4	25.4	30.559	0.00	0.00	1.633	0.000	83.9	18	35.8	80.8	1404	1	100.0	60
01/15/18	12:00 a	26.6	26.6	25.8	67	17.1	0.0	NE	0.00	15.0	WNW	26.6	26.1	26.1	30.534	0.00	0.00	1.600	0.000	82.8	18	34.9	79.6	1405	1	100.0	60

MONDAY			Temp	Hi	Low	Out	Dew	Wind	Wind	Wind	Hi	Hi	Wind	Heat	THW			Rain	Heat	Cool	In 	In	In 	In 	Wind	Wind	ISS 	Arc.
Date		Time	Out	Temp	Temp	Hum	Pt.	Speed	Dir	Run	Speed	Dir	Chill	Index	Index	Bar  	Rain	Rate	D-D 	D-D 	Temp	Hum	Dew	Heat	Samp	Tx 	Recept	Int.
01/15/18	1:00 a	27.4	27.4	26.6	76	20.8	0.0	NE	0.00	14.0	NE	27.4	27.0	27.0	30.520	0.00	0.00	1.567	0.000	82.3	18	34.5	79.0	1403	1	100.0	60
01/15/18	2:00 a	28.1	28.1	27.3	76	21.5	0.0	NNW	0.00	18.0	NNW	28.1	27.7	27.7	30.503	0.00	0.00	1.537	0.000	82.1	18	34.4	78.8	1405	1	100.0	60
01/15/18	3:00 a	27.8	28.1	27.8	77	21.5	0.0	NE	0.00	19.0	NE	27.8	27.4	27.4	30.481	0.00	0.00	1.550	0.000	82.4	18	34.6	79.2	1405	1	100.0	60
01/15/18	4:00 a	28.8	28.8	27.8	78	22.8	0.0	NNW	0.00	19.0	NW	28.8	28.5	28.5	30.476	0.00	0.00	1.508	0.000	81.8	18	34.1	78.5	1405	1	100.0	60
01/15/18	5:00 a	29.0	29.0	28.8	78	23.0	0.0	NNW	0.00	20.0	NE	29.0	28.7	28.7	30.470	0.00	0.00	1.500	0.000	82.0	18	34.3	78.7	1405	1	100.0	60
01/15/18	6:00 a	29.1	29.2	29.0	80	23.7	4.0	NE	4.00	19.0	NNE	24.7	28.8	24.4	30.474	0.00	0.00	1.496	0.000	81.2	18	33.6	77.9	1405	1	100.0	60
01/15/18	7:00 a	29.1	29.2	29.0	83	24.6	4.0	NNE	4.00	18.0	NW	24.7	28.9	24.5	30.478	0.00	0.00	1.496	0.000	81.7	18	34.1	78.4	1405	1	100.0	60
01/15/18	8:00 a	29.4	29.4	29.0	84	25.2	6.0	NE	6.00	21.0	WNW	23.1	29.2	22.9	30.491	0.00	0.00	1.483	0.000	82.3	18	34.5	79.0	1404	1	100.0	60
01/15/18	9:00 a	30.1	30.1	29.4	83	25.6	7.0	NE	7.00	22.0	N	23.2	29.9	23.0	30.511	0.00	0.00	1.454	0.000	82.2	18	34.5	78.9	1405	1	100.0	60
01/15/18	10:00 a	30.7	30.7	30.0	84	26.4	7.0	NNE	7.00	19.0	NE	23.9	30.5	23.7	30.516	0.00	0.00	1.429	0.000	83.0	18	35.1	79.8	1405	1	100.0	60
01/15/18	11:00 a	31.5	31.5	30.7	85	27.5	7.0	NW	7.00	20.0	NW	24.9	31.3	24.7	30.498	0.00	0.00	1.396	0.000	80.4	20	35.6	77.4	1405	1	100.0	60
01/15/18	12:00 p	33.4	33.4	31.5	83	28.8	7.0	NNW	7.00	20.0	NNW	27.2	33.1	26.9	30.450	0.00	0.00	1.317	0.000	78.5	21	35.3	76.1	1405	1	100.0	60
01/15/18	1:00 p	34.9	34.9	33.4	82	30.0	6.0	NW	6.00	21.0	NW	29.7	34.6	29.4	30.428	0.00	0.00	1.254	0.000	78.7	21	35.5	76.1	1405	1	100.0	60
01/15/18	2:00 p	35.9	35.9	34.9	77	29.4	5.0	NW	5.00	17.0	NNW	31.7	35.5	31.3	30.432	0.00	0.00	1.212	0.000	78.3	21	35.1	76.0	1405	1	100.0	60
01/15/18	3:00 p	36.4	36.5	35.9	74	28.9	5.0	NNW	5.00	15.0	W	32.2	36.0	31.8	30.413	0.00	0.00	1.192	0.000	78.3	22	36.3	76.1	1405	1	100.0	60
01/15/18	4:00 p	36.9	37.0	36.4	76	30.0	5.0	NW	5.00	16.0	NE	32.8	36.5	32.4	30.425	0.00	0.00	1.171	0.000	79.0	22	36.9	76.3	1405	1	100.0	60
01/15/18	5:00 p	36.0	37.0	36.0	80	30.4	5.0	NNW	5.00	17.0	NW	31.8	35.7	31.5	30.453	0.00	0.00	1.208	0.000	78.6	22	36.6	76.2	1404	1	100.0	60
01/15/18	6:00 p	35.2	36.0	35.2	81	30.0	5.0	NE	5.00	16.0	NW	30.8	34.9	30.5	30.431	0.00	0.00	1.242	0.000	78.4	22	36.4	76.1	1405	1	100.0	60
01/15/18	7:00 p	34.2	35.2	34.1	82	29.3	0.0	NE	0.00	14.0	E	34.2	33.9	33.9	30.432	0.00	0.00	1.283	0.000	81.9	21	38.1	78.9	1405	1	100.0	60
01/15/18	8:00 p	33.6	34.2	33.6	83	29.0	4.0	NNW	4.00	15.0	NW	29.9	33.3	29.6	30.451	0.00	0.00	1.308	0.000	84.3	19	37.5	81.2	1405	1	100.0	60
01/15/18	9:00 p	33.6	33.7	33.5	85	29.6	4.0	NNW	4.00	18.0	NNW	29.9	33.3	29.6	30.448	0.00	0.00	1.308	0.000	84.2	19	37.5	81.1	1405	1	100.0	60
01/15/18	10:00 p	33.5	33.7	33.4	89	30.6	4.0	NE	4.00	15.0	NE	29.8	33.3	29.6	30.468	0.00	0.00	1.313	0.000	84.4	19	37.6	81.3	1405	1	100.0	60
01/15/18	11:00 p	33.6	33.7	33.5	92	31.5	4.0	NE	4.00	14.0	N	29.9	33.4	29.7	30.454	0.00	0.00	1.308	0.000	83.4	20	38.1	80.4	1405	1	100.0	60
01/16/18	12:00 a	33.7	33.7	33.6	94	32.2	4.0	ENE	4.00	12.0	NE	30.0	33.6	29.9	30.428	0.00	0.00	1.304	0.000	82.0	20	37.0	78.9	1405	1	100.0	60

TUESDAY			Temp	Hi	Low	Out	Dew	Wind	Wind	Wind	Hi	Hi	Wind	Heat	THW			Rain	Heat	Cool	In 	In	In 	In 	Wind	Wind	ISS 	Arc.
Date		Time	Out	Temp	Temp	Hum	Pt.	Speed	Dir	Run	Speed	Dir	Chill	Index	Index	Bar  	Rain	Rate	D-D 	D-D 	Temp	Hum	Dew	Heat	Samp	Tx 	Recept	Int.
01/16/18	1:00 a	33.9	33.9	33.6	96	32.9	0.0	NE	0.00	10.0	NE	33.9	33.8	33.8	30.421	0.00	0.00	1.296	0.000	81.5	20	36.5	78.4	1404	1	100.0	60
01/16/18	2:00 a	33.7	33.9	33.7	96	32.7	0.0	NNW	0.00	13.0	NW	33.7	33.6	33.6	30.413	0.00	0.00	1.304	0.000	81.1	20	36.2	78.0	1405	1	100.0	60
01/16/18	3:00 a	33.4	33.7	33.4	97	32.6	0.0	NNW	0.00	5.0	NW	33.4	33.3	33.3	30.421	0.00	0.00	1.317	0.000	80.7	20	35.9	77.6	1405	1	100.0	60
01/16/18	4:00 a	33.3	33.5	33.3	97	32.5	0.0	---	0.00	0.0	---	33.3	33.2	33.2	30.431	0.00	0.00	1.321	0.000	81.2	20	36.3	78.1	1404	1	100.0	60
01/16/18	5:00 a	33.0	33.3	33.0	97	32.2	0.0	---	0.00	0.0	---	33.0	32.9	32.9	30.434	0.00	0.00	1.333	0.000	81.0	20	36.1	77.9	1405	1	100.0	60
01/16/18	6:00 a	32.5	33.0	32.5	97	31.7	0.0	---	0.00	0.0	---	32.5	32.5	32.5	30.455	0.00	0.00	1.354	0.000	80.5	21	37.0	77.6	1405	1	100.0	60
01/16/18	7:00 a	32.0	32.5	32.0	97	31.2	0.0	---	0.00	0.0	---	32.0	32.0	32.0	30.461	0.00	0.00	1.375	0.000	81.6	20	36.6	78.5	1405	1	100.0	60
01/16/18	8:00 a	31.9	32.0	31.8	98	31.4	0.0	WNW	0.00	6.0	WNW	31.9	31.9	31.9	30.463	0.00	0.00	1.379	0.000	82.0	20	37.0	78.9	1405	1	100.0	60
01/16/18	9:00 a	32.0	32.1	31.8	98	31.5	0.0	N	0.00	4.0	N	32.0	32.0	32.0	30.461	0.00	0.00	1.375	0.000	82.6	21	38.7	79.7	1405	1	100.0	60
01/16/18	10:00 a	33.8	33.8	31.9	98	33.3	0.0	---	0.00	0.0	---	33.8	33.8	33.8	30.461	0.00	0.00	1.300	0.000	82.5	21	38.6	79.6	1405	1	100.0	60
01/16/18	11:00 a	34.3	34.5	33.8	97	33.5	0.0	N	0.00	4.0	N	34.3	34.3	34.3	30.461	0.00	0.00	1.279	0.000	81.4	21	37.7	78.4	1405	1	100.0	60
01/16/18	12:00 p	36.2	36.2	34.3	95	34.9	0.0	---	0.00	0.0	---	36.2	36.2	36.2	30.426	0.00	0.00	1.200	0.000	81.8	21	38.0	78.8	1404	1	100.0	60
01/16/18	1:00 p	38.0	38.0	36.2	91	35.6	0.0	---	0.00	0.0	---	38.0	37.9	37.9	30.390	0.00	0.00	1.125	0.000	82.6	21	38.7	79.7	1406	1	100.0	60
01/16/18	2:00 p	39.1	39.1	37.9	87	35.6	0.0	NW	0.00	7.0	WSW	39.1	38.9	38.9	30.364	0.00	0.00	1.079	0.000	83.2	21	39.2	80.3	1404	1	100.0	60
01/16/18	3:00 p	40.0	40.0	39.0	85	35.9	0.0	ENE	0.00	4.0	ENE	40.0	39.8	39.8	30.356	0.00	0.00	1.042	0.000	83.3	21	39.3	80.4	1405	1	100.0	60
01/16/18	4:00 p	40.7	40.7	40.0	83	35.9	0.0	NNE	0.00	4.0	NNE	40.7	40.5	40.5	30.341	0.00	0.00	1.012	0.000	83.8	21	39.7	80.9	1405	1	100.0	60
01/16/18	5:00 p	40.4	40.7	40.4	83	35.6	0.0	---	0.00	0.0	---	40.4	40.2	40.2	30.331	0.00	0.00	1.025	0.000	84.0	21	39.9	81.1	1405	1	100.0	60
01/16/18	6:00 p	38.9	40.4	38.9	85	34.8	0.0	---	0.00	0.0	---	38.9	38.7	38.7	30.340	0.00	0.00	1.087	0.000	83.5	22	40.6	80.7	1405	1	100.0	60
01/16/18	7:00 p	36.9	38.9	36.9	88	33.7	0.0	---	0.00	0.0	---	36.9	36.8	36.8	30.342	0.00	0.00	1.171	0.000	82.8	21	38.9	79.9	1405	1	100.0	60
01/16/18	8:00 p	35.1	36.9	35.1	90	32.5	0.0	---	0.00	0.0	---	35.1	35.0	35.0	30.333	0.00	0.00	1.246	0.000	82.8	21	38.9	79.9	1405	1	100.0	60
01/16/18	9:00 p	33.9	35.1	33.9	91	31.6	0.0	---	0.00	0.0	---	33.9	33.7	33.7	30.334	0.00	0.00	1.296	0.000	83.8	21	39.7	80.9	1405	1	100.0	60
01/16/18	10:00 p	33.3	33.9	33.3	93	31.5	0.0	---	0.00	0.0	---	33.3	33.2	33.2	30.321	0.00	0.00	1.321	0.000	83.5	21	39.4	80.6	1405	1	100.0	60
01/16/18	11:00 p	32.9	33.3	32.9	93	31.1	0.0	---	0.00	0.0	---	32.9	32.8	32.8	30.314	0.00	0.00	1.337	0.000	83.0	21	39.0	80.1	1404	1	100.0	60
01/17/18	12:00 a	32.5	32.9	32.5	94	31.0	0.0	---	0.00	0.0	---	32.5	32.4	32.4	30.296	0.00	0.00	1.354	0.000	81.2	21	37.5	78.2	1405	1	100.0	60

WEDNESDAY		Temp	Hi	Low	Out	Dew	Wind	Wind	Wind	Hi	Hi	Wind	Heat	THW			Rain	Heat	Cool	In 	In	In 	In 	Wind	Wind	ISS 	Arc.
Date		Time	Out	Temp	Temp	Hum	Pt.	Speed	Dir	Run	Speed	Dir	Chill	Index	Index	Bar  	Rain	Rate	D-D 	D-D 	Temp	Hum	Dew	Heat	Samp	Tx 	Recept	Int.
01/17/18	1:00 a	32.1	32.5	32.1	94	30.6	0.0	---	0.00	0.0	---	32.1	32.0	32.0	30.268	0.00	0.00	1.371	0.000	80.8	21	37.2	77.8	1404	1	100.0	60
01/17/18	2:00 a	31.9	32.2	31.9	94	30.4	0.0	---	0.00	0.0	---	31.9	31.8	31.8	30.269	0.00	0.00	1.379	0.000	80.4	21	36.9	77.5	1405	1	100.0	60
01/17/18	3:00 a	31.7	31.9	31.7	94	30.2	0.0	---	0.00	0.0	---	31.7	31.6	31.6	30.267	0.00	0.00	1.387	0.000	79.9	21	36.5	77.0	1405	1	100.0	60
01/17/18	4:00 a	31.6	31.7	31.5	95	30.3	0.0	---	0.00	0.0	---	31.6	31.5	31.5	30.267	0.00	0.00	1.392	0.000	80.4	21	36.9	77.5	1405	1	100.0	60
01/17/18	5:00 a	31.7	31.7	31.6	95	30.4	0.0	---	0.00	0.0	---	31.7	31.6	31.6	30.255	0.00	0.00	1.387	0.000	80.3	21	36.8	77.4	1405	1	100.0	60
01/17/18	6:00 a	31.7	31.9	31.6	95	30.4	0.0	---	0.00	0.0	---	31.7	31.6	31.6	30.269	0.00	0.00	1.387	0.000	79.9	21	36.5	77.0	1405	1	100.0	60
01/17/18	7:00 a	32.9	32.9	31.4	97	32.1	0.0	---	0.00	0.0	---	32.9	32.8	32.8	30.272	0.00	0.00	1.337	0.000	80.9	21	37.3	77.9	1404	1	100.0	60
01/17/18	8:00 a	34.6	34.6	32.9	94	33.1	0.0	ENE	0.00	4.0	ENE	34.6	34.5	34.5	30.272	0.00	0.00	1.267	0.000	82.8	21	38.9	79.9	1405	1	100.0	60
01/17/18	9:00 a	35.7	35.7	34.6	90	33.1	0.0	NNE	0.00	11.0	NNE	35.7	35.6	35.6	30.310	0.00	0.00	1.221	0.000	82.7	21	38.8	79.8	1405	1	100.0	60
01/17/18	10:00 a	36.3	36.3	35.6	89	33.4	4.0	NE	4.00	18.0	NE	33.0	36.2	32.9	30.304	0.00	0.00	1.196	0.000	82.7	21	38.8	79.8	1405	1	100.0	60
01/17/18	11:00 a	35.8	36.3	35.8	87	32.3	11.0	NE	11.00	24.0	NE	28.0	35.6	27.8	30.305	0.00	0.00	1.217	0.000	82.0	21	38.2	79.0	1405	1	100.0	60
01/17/18	12:00 p	35.1	35.9	34.9	85	31.0	12.0	NE	12.00	25.0	NE	26.7	34.9	26.5	30.281	0.00	0.00	1.246	0.000	80.9	21	37.3	77.9	1405	1	100.0	60
01/17/18	1:00 p	34.5	35.4	34.5	83	29.9	11.0	NE	11.00	22.0	NE	26.4	34.2	26.1	30.254	0.00	0.00	1.271	0.000	81.7	21	38.0	78.7	1405	1	100.0	60
01/17/18	2:00 p	33.9	34.5	33.9	82	29.0	7.0	NNW	7.00	23.0	NNW	27.8	33.6	27.5	30.233	0.00	0.00	1.296	0.000	82.4	21	38.5	79.4	1405	1	100.0	60
01/17/18	3:00 p	31.3	33.9	31.3	85	27.3	7.0	NNW	7.00	23.0	NNW	24.7	31.1	24.5	30.225	0.00	0.00	1.404	0.000	81.9	21	38.1	78.9	1405	1	100.0	60
01/17/18	4:00 p	28.4	31.3	28.4	92	26.4	6.0	NNW	6.00	20.0	NW	21.9	28.2	21.7	30.223	0.03	0.03	1.525	0.000	83.8	20	38.4	80.8	1403	1	100.0	60
01/17/18	5:00 p	27.8	28.4	27.8	94	26.3	5.0	N	5.00	17.0	NNW	22.1	27.7	22.0	30.231	0.06	0.06	1.550	0.000	84.5	20	39.0	81.4	1404	1	100.0	60
01/17/18	6:00 p	27.4	27.8	27.3	93	25.6	4.0	N	4.00	18.0	NNW	22.8	27.3	22.7	30.233	0.04	0.04	1.567	0.000	83.3	20	38.0	80.3	1405	1	100.0	60
01/17/18	7:00 p	26.3	27.4	26.3	93	24.6	5.0	N	5.00	19.0	NNW	20.4	26.2	20.3	30.223	0.04	0.04	1.613	0.000	83.6	20	38.3	80.6	1405	1	100.0	60
01/17/18	8:00 p	25.5	26.3	25.5	92	23.5	5.0	N	5.00	23.0	N	19.4	25.4	19.3	30.217	0.04	0.04	1.646	0.000	83.9	19	37.2	80.9	1405	1	100.0	60
01/17/18	9:00 p	25.2	25.5	25.2	90	22.7	11.0	N	11.00	25.0	NNW	14.7	25.1	14.6	30.201	0.03	0.03	1.658	0.000	83.0	19	36.5	79.9	1405	1	100.0	60
01/17/18	10:00 p	25.0	25.3	25.0	91	22.7	10.0	N	10.00	22.0	NW	15.1	24.9	15.0	30.200	0.03	0.03	1.667	0.000	83.4	19	36.8	80.3	1405	1	100.0	60
01/17/18	11:00 p	24.4	25.0	24.4	91	22.2	10.0	NNW	10.00	23.0	NNW	14.3	24.3	14.2	30.184	0.02	0.02	1.692	0.000	82.3	19	35.9	79.1	1405	1	100.0	60
01/18/18	12:00 a	24.0	24.5	24.0	91	21.8	11.0	NW	11.00	23.0	NW	13.2	23.9	13.1	30.145	0.01	0.01	1.708	0.000	81.7	19	35.4	78.5	1405	1	100.0	60

THURSDAY		Temp	Hi	Low	Out	Dew	Wind	Wind	Wind	Hi	Hi	Wind	Heat	THW			Rain	Heat	Cool	In 	In	In 	In 	Wind	Wind	ISS 	Arc.
Date		Time	Out	Temp	Temp	Hum	Pt.	Speed	Dir	Run	Speed	Dir	Chill	Index	Index	Bar  	Rain	Rate	D-D 	D-D 	Temp	Hum	Dew	Heat	Samp	Tx 	Recept	Int.
01/18/18	1:00 a	24.0	24.0	23.7	86	20.4	10.0	NW	10.00	23.0	NW	13.8	23.8	13.6	30.143	0.00	0.00	1.708	0.000	77.2	21	34.2	75.6	1398	1	100.0	60
01/18/18	2:00 a	25.4	25.5	24.0	75	18.6	7.0	NNW	7.00	24.0	NNW	17.5	25.1	17.2	30.114	0.00	0.00	1.650	0.000	76.6	21	33.7	75.0	1405	1	100.0	60
01/18/18	3:00 a	24.7	25.4	24.7	73	17.3	12.0	NW	12.00	24.0	NNW	13.6	24.4	13.3	30.116	0.00	0.00	1.679	0.000	75.9	21	33.1	74.0	1405	1	100.0	60
01/18/18	4:00 a	23.9	24.7	23.9	72	16.2	10.0	NW	10.00	30.0	NNW	13.7	23.5	13.3	30.148	0.00	0.00	1.713	0.000	76.1	21	33.3	74.3	1405	1	100.0	60
01/18/18	5:00 a	23.5	23.9	23.5	71	15.5	6.0	NW	6.00	24.0	N	16.1	23.1	15.7	30.148	0.00	0.00	1.729	0.000	76.3	21	33.5	74.6	1405	1	100.0	60
01/18/18	6:00 a	23.4	23.5	23.4	71	15.4	7.0	NW	7.00	27.0	NW	15.1	23.0	14.7	30.140	0.00	0.00	1.733	0.000	75.7	21	33.0	73.7	1405	1	100.0	60
01/18/18	7:00 a	23.0	23.4	23.0	71	15.0	5.0	NW	5.00	22.0	NW	16.5	22.6	16.1	30.181	0.00	0.00	1.750	0.000	80.4	19	34.3	77.3	1405	1	100.0	60
01/18/18	8:00 a	23.0	23.0	22.9	67	13.7	2.0	NW	2.00	15.0	NNW	21.1	22.6	20.7	30.178	0.00	0.00	1.750	0.000	83.5	17	34.1	80.3	1405	1	100.0	60
01/18/18	9:00 a	24.4	24.4	23.0	68	15.3	5.0	NW	5.00	19.0	WNW	18.1	24.0	17.7	30.191	0.00	0.00	1.692	0.000	83.0	17	33.7	79.8	1405	1	100.0	60
01/18/18	10:00 a	25.7	25.7	24.4	66	15.9	5.0	WNW	5.00	19.0	NW	19.7	25.2	19.2	30.203	0.00	0.00	1.637	0.000	86.3	17	36.3	83.0	1404	1	100.0	60
01/18/18	11:00 a	27.2	27.2	25.7	62	15.9	5.0	NW	5.00	23.0	NNW	21.4	26.6	20.8	30.193	0.00	0.00	1.575	0.000	88.7	16	36.7	84.4	1406	1	100.0	60
01/18/18	12:00 p	29.5	29.5	27.2	60	17.3	5.0	WNW	5.00	19.0	NNW	24.1	28.8	23.4	30.163	0.00	0.00	1.479	0.000	88.8	17	38.4	84.6	1404	1	100.0	60
01/18/18	1:00 p	32.4	32.4	29.5	57	18.8	5.0	W	5.00	17.0	W	27.5	31.6	26.7	30.139	0.00	0.00	1.358	0.000	88.0	17	37.7	84.2	1405	1	100.0	60
01/18/18	2:00 p	34.7	34.7	32.4	56	20.6	4.0	W	4.00	19.0	SW	31.2	33.9	30.4	30.114	0.00	0.00	1.262	0.000	88.3	17	38.0	84.3	1405	1	100.0	60
01/18/18	3:00 p	36.4	36.5	34.7	56	22.2	4.0	WSW	4.00	16.0	W	33.2	35.5	32.3	30.092	0.00	0.00	1.192	0.000	88.8	17	38.4	84.6	1405	1	100.0	60
01/18/18	4:00 p	37.4	37.5	36.5	57	23.5	4.0	WSW	4.00	17.0	WSW	34.3	36.5	33.4	30.105	0.00	0.00	1.150	0.000	88.6	17	38.2	84.5	1405	1	100.0	60
01/18/18	5:00 p	35.8	37.4	35.8	62	24.0	5.0	WSW	5.00	18.0	WNW	31.5	35.1	30.8	30.110	0.00	0.00	1.217	0.000	87.4	17	37.2	83.8	1405	1	100.0	60
01/18/18	6:00 p	33.5	35.8	33.5	70	24.8	4.0	SW	4.00	15.0	SSW	29.8	33.0	29.3	30.129	0.00	0.00	1.313	0.000	85.1	18	36.8	81.9	1405	1	100.0	60
01/18/18	7:00 p	32.5	33.5	32.5	74	25.1	0.0	WSW	0.00	16.0	WSW	32.5	32.1	32.1	30.131	0.00	0.00	1.354	0.000	83.3	18	35.4	80.2	1405	1	100.0	60
01/18/18	8:00 p	31.5	32.5	31.5	76	24.8	0.0	SSW	0.00	15.0	SSW	31.5	31.1	31.1	30.140	0.00	0.00	1.396	0.000	83.5	18	35.5	80.4	1404	1	100.0	60
01/18/18	9:00 p	30.2	31.5	30.2	80	24.8	0.0	SSW	0.00	12.0	S	30.2	29.9	29.9	30.156	0.00	0.00	1.450	0.000	83.8	18	35.8	80.7	1405	1	100.0	60
01/18/18	10:00 p	29.4	30.2	29.4	80	24.0	0.0	SSW	0.00	12.0	SSE	29.4	29.1	29.1	30.159	0.00	0.00	1.483	0.000	83.7	18	35.7	80.6	1405	1	100.0	60
01/18/18	11:00 p	29.2	29.4	29.2	79	23.5	0.0	---	0.00	0.0	---	29.2	28.9	28.9	30.160	0.00	0.00	1.492	0.000	82.8	18	34.9	79.6	1405	1	100.0	60
01/19/18	12:00 a	28.6	29.2	28.6	80	23.2	0.0	---	0.00	0.0	---	28.6	28.3	28.3	30.177	0.00	0.00	1.517	0.000	81.6	19	35.3	78.4	1406	1	100.0	60

FRIDAY			Temp	Hi	Low	Out	Dew	Wind	Wind	Wind	Hi	Hi	Wind	Heat	THW			Rain	Heat	Cool	In 	In	In 	In 	Wind	Wind	ISS 	Arc.
Date		Time	Out	Temp	Temp	Hum	Pt.	Speed	Dir	Run	Speed	Dir	Chill	Index	Index	Bar  	Rain	Rate	D-D 	D-D 	Temp	Hum	Dew	Heat	Samp	Tx 	Recept	Int.
01/19/18	1:00 a	27.4	28.6	27.4	82	22.6	0.0	---	0.00	0.0	---	27.4	27.1	27.1	30.161	0.00	0.00	1.567	0.000	80.7	19	34.6	77.5	1403	1	100.0	60
01/19/18	2:00 a	26.4	27.4	26.4	84	22.2	0.0	SW	0.00	4.0	SW	26.4	26.2	26.2	30.154	0.00	0.00	1.608	0.000	80.6	19	34.5	77.5	1405	1	100.0	60
01/19/18	3:00 a	25.8	26.4	25.8	86	22.2	0.0	---	0.00	0.0	---	25.8	25.6	25.6	30.145	0.00	0.00	1.633	0.000	80.4	18	33.0	77.2	1404	1	100.0	60
01/19/18	4:00 a	25.7	25.8	25.6	86	22.1	0.0	---	0.00	0.0	---	25.7	25.5	25.5	30.119	0.00	0.00	1.637	0.000	80.6	18	33.2	77.4	1405	1	100.0	60
01/19/18	5:00 a	25.3	25.7	25.3	87	22.0	0.0	---	0.00	0.0	---	25.3	25.1	25.1	30.121	0.00	0.00	1.654	0.000	80.5	18	33.1	77.3	1405	1	100.0	60
01/19/18	6:00 a	24.9	25.3	24.9	88	21.8	0.0	---	0.00	0.0	---	24.9	24.8	24.8	30.133	0.00	0.00	1.671	0.000	80.8	18	33.3	77.6	1405	1	100.0	60
01/19/18	7:00 a	24.9	24.9	24.8	88	21.8	0.0	---	0.00	0.0	---	24.9	24.8	24.8	30.141	0.00	0.00	1.671	0.000	81.5	18	33.9	78.2	1405	1	100.0	60
01/19/18	8:00 a	25.2	25.2	24.8	89	22.4	0.0	---	0.00	0.0	---	25.2	25.1	25.1	30.154	0.00	0.00	1.658	0.000	83.4	18	35.4	80.3	1405	1	100.0	60
01/19/18	9:00 a	28.9	28.9	25.2	82	24.1	0.0	---	0.00	0.0	---	28.9	28.6	28.6	30.160	0.00	0.00	1.504	0.000	83.9	17	34.4	80.8	1405	1	100.0	60
01/19/18	10:00 a	34.6	34.6	28.8	66	24.4	0.0	WSW	0.00	13.0	WSW	34.6	34.0	34.0	30.178	0.00	0.00	1.267	0.000	84.3	18	36.2	81.2	1405	1	100.0	60
01/19/18	11:00 a	40.5	40.5	34.7	53	24.7	4.0	WSW	4.00	15.0	SW	37.9	39.5	36.9	30.150	0.00	0.00	1.021	0.000	85.4	18	37.1	82.1	1405	1	100.0	60
01/19/18	12:00 p	45.4	45.4	40.5	41	23.0	5.0	W	5.00	18.0	WSW	42.8	44.0	41.4	30.140	0.00	0.00	0.817	0.000	86.3	18	37.8	83.0	1405	1	100.0	60
01/19/18	1:00 p	47.7	47.7	45.4	39	23.9	7.0	W	7.00	16.0	W	44.4	46.2	42.9	30.108	0.00	0.00	0.721	0.000	86.2	19	39.1	82.9	1404	1	100.0	60
01/19/18	2:00 p	50.1	50.2	47.7	37	24.8	5.0	WSW	5.00	18.0	W	48.3	48.5	46.7	30.078	0.00	0.00	0.621	0.000	86.5	19	39.3	83.2	1405	1	100.0	60
01/19/18	3:00 p	52.1	52.1	50.1	34	24.6	4.0	SSW	4.00	15.0	WSW	51.3	49.9	49.1	30.065	0.00	0.00	0.538	0.000	86.3	19	39.2	83.0	1405	1	100.0	60
01/19/18	4:00 p	51.9	52.3	51.9	35	25.1	4.0	SW	4.00	15.0	SW	51.1	49.8	49.0	30.064	0.00	0.00	0.546	0.000	86.4	19	39.3	83.1	1405	1	100.0	60
01/19/18	5:00 p	50.3	51.9	50.3	36	24.3	4.0	SW	4.00	15.0	SSE	49.2	48.6	47.5	30.060	0.00	0.00	0.613	0.000	85.8	19	38.8	82.6	1405	1	100.0	60
01/19/18	6:00 p	46.5	50.3	46.5	43	25.2	0.0	SSW	0.00	10.0	SSW	46.5	45.1	45.1	30.066	0.00	0.00	0.771	0.000	85.5	19	38.5	82.3	1405	1	100.0	60
01/19/18	7:00 p	42.1	46.5	42.1	52	25.7	0.0	---	0.00	0.0	---	42.1	41.0	41.0	30.080	0.00	0.00	0.954	0.000	86.5	19	39.3	83.2	1405	1	100.0	60
01/19/18	8:00 p	39.0	42.0	39.0	52	22.8	0.0	SW	0.00	6.0	SW	39.0	38.0	38.0	30.097	0.00	0.00	1.083	0.000	85.4	19	38.4	82.2	1405	1	100.0	60
01/19/18	9:00 p	38.0	39.0	38.0	56	23.7	0.0	---	0.00	0.0	---	38.0	37.1	37.1	30.102	0.00	0.00	1.125	0.000	84.7	19	37.9	81.5	1405	1	100.0	60
01/19/18	10:00 p	36.7	38.0	36.6	57	22.9	0.0	---	0.00	0.0	---	36.7	35.8	35.8	30.099	0.00	0.00	1.179	0.000	84.4	19	37.6	81.3	1405	1	100.0	60
01/19/18	11:00 p	36.4	36.7	36.4	58	23.0	0.0	SSW	0.00	11.0	SSW	36.4	35.6	35.6	30.095	0.00	0.00	1.192	0.000	83.3	20	38.0	80.3	1405	1	100.0	60
01/20/18	12:00 a	36.5	36.6	36.4	61	24.3	0.0	SW	0.00	10.0	SSW	36.5	35.7	35.7	30.089	0.00	0.00	1.188	0.000	83.1	20	37.9	80.1	1404	1	100.0	60

SATURDAY		Temp	Hi	Low	Out	Dew	Wind	Wind	Wind	Hi	Hi	Wind	Heat	THW			Rain	Heat	Cool	In 	In	In 	In 	Wind	Wind	ISS 	Arc.
Date		Time	Out	Temp	Temp	Hum	Pt.	Speed	Dir	Run	Speed	Dir	Chill	Index	Index	Bar  	Rain	Rate	D-D 	D-D 	Temp	Hum	Dew	Heat	Samp	Tx 	Recept	Int.
01/20/18	1:00 a	35.9	36.5	35.9	63	24.5	0.0	SSW	0.00	4.0	SSW	35.9	35.2	35.2	30.073	0.00	0.00	1.212	0.000	83.5	19	36.9	80.4	1403	1	100.0	60
01/20/18	2:00 a	35.0	35.9	35.0	66	24.8	0.0	SSW	0.00	5.0	SSW	35.0	34.4	34.4	30.078	0.00	0.00	1.250	0.000	82.9	20	37.7	79.9	1405	1	100.0	60
01/20/18	3:00 a	33.8	35.0	33.8	70	25.0	0.0	SSW	0.00	4.0	SSW	33.8	33.3	33.3	30.076	0.00	0.00	1.300	0.000	82.5	19	36.1	79.4	1405	1	100.0	60
01/20/18	4:00 a	33.6	33.8	33.6	72	25.5	0.0	SSW	0.00	5.0	SSW	33.6	33.1	33.1	30.065	0.00	0.00	1.308	0.000	82.8	19	36.3	79.7	1405	1	100.0	60
01/20/18	5:00 a	33.8	33.9	33.6	73	26.1	0.0	---	0.00	0.0	---	33.8	33.3	33.3	30.059	0.00	0.00	1.300	0.000	82.5	19	36.1	79.4	1405	1	100.0	60
01/20/18	6:00 a	33.5	33.9	33.5	73	25.8	0.0	S	0.00	10.0	SW	33.5	33.0	33.0	30.072	0.00	0.00	1.313	0.000	82.9	19	36.4	79.8	1405	1	100.0	60
01/20/18	7:00 a	33.1	33.5	33.1	74	25.7	0.0	SW	0.00	5.0	SSW	33.1	32.7	32.7	30.086	0.00	0.00	1.329	0.000	82.4	19	36.0	79.2	1405	1	100.0	60
01/20/18	8:00 a	33.1	33.1	32.8	77	26.7	0.0	SSW	0.00	5.0	SSW	33.1	32.7	32.7	30.091	0.00	0.00	1.329	0.000	82.7	19	36.2	79.6	1405	1	100.0	60
01/20/18	9:00 a	36.8	36.8	33.1	69	27.6	0.0	---	0.00	0.0	---	36.8	36.2	36.2	30.098	0.00	0.00	1.175	0.000	83.2	19	36.6	80.1	1404	1	100.0	60

			Temp	Hi	Low	Out	Dew	Wind	Wind	Wind	Hi	Hi	Wind	Heat	THW			Rain	Heat	Cool	In 	In	In 	In 	Wind	Wind	ISS 	Arc.
Date		Time	Out	Temp	Temp	Hum	Pt.	Speed	Dir	Run	Speed	Dir	Chill	Index	Index	Bar  	Rain	Rate	D-D 	D-D 	Temp	Hum	Dew	Heat	Samp	Tx 	Recept	Int.